<?xml version="1.0" encoding="UTF-8" standalone="no" ?>
<gpx xmlns="http://www.topografix.com/GPX/1/1" xmlns:xsi="http://www.w3.org/2001/XMLSchema-instance" xsi:schemaLocation="http://www.topografix.com/GPX/1/1 http://www.topografix.com/GPX/1/1/gpx.xsd" version="1.1" creator="VisuGPX - https://www.visugpx.com">
  <metadata>
    <name>Seillans</name>
  </metadata>
  <wpt lat="43.61636" lon="6.64713">
    <ele>357.2</ele>
  </wpt>
  <trk>
    <name><![CDATA[Seillans_1]]></name>
    <trkseg>
      <trkpt lat="43.61604" lon="6.65236">
        <ele>348.1</ele>
        <time>2020-01-08T13:42:15Z</time>
      </trkpt>
      <trkpt lat="43.61604" lon="6.65236">
        <ele>348.1</ele>
        <time>2020-01-08T13:42:15Z</time>
      </trkpt>
      <trkpt lat="43.61602" lon="6.65243">
        <ele>346.6</ele>
        <time>2020-01-08T13:42:22Z</time>
      </trkpt>
      <trkpt lat="43.61602" lon="6.65249">
        <ele>346</ele>
        <time>2020-01-08T13:42:26Z</time>
      </trkpt>
      <trkpt lat="43.61601" lon="6.65258">
        <ele>345.2</ele>
        <time>2020-01-08T13:42:30Z</time>
      </trkpt>
      <trkpt lat="43.61599" lon="6.65264">
        <ele>344</ele>
        <time>2020-01-08T13:42:34Z</time>
      </trkpt>
      <trkpt lat="43.61597" lon="6.65271">
        <ele>343.5</ele>
        <time>2020-01-08T13:42:39Z</time>
      </trkpt>
      <trkpt lat="43.61595" lon="6.65277">
        <ele>343.5</ele>
        <time>2020-01-08T13:42:44Z</time>
      </trkpt>
      <trkpt lat="43.61591" lon="6.65281">
        <ele>343.8</ele>
        <time>2020-01-08T13:42:50Z</time>
      </trkpt>
      <trkpt lat="43.61589" lon="6.65288">
        <ele>344.3</ele>
        <time>2020-01-08T13:42:54Z</time>
      </trkpt>
      <trkpt lat="43.61587" lon="6.65294">
        <ele>344.6</ele>
        <time>2020-01-08T13:43:00Z</time>
      </trkpt>
      <trkpt lat="43.61584" lon="6.65302">
        <ele>344.8</ele>
        <time>2020-01-08T13:43:04Z</time>
      </trkpt>
      <trkpt lat="43.61582" lon="6.65307">
        <ele>344.8</ele>
        <time>2020-01-08T13:43:07Z</time>
      </trkpt>
      <trkpt lat="43.61579" lon="6.65313">
        <ele>344.9</ele>
        <time>2020-01-08T13:43:11Z</time>
      </trkpt>
      <trkpt lat="43.61578" lon="6.65321">
        <ele>345.1</ele>
        <time>2020-01-08T13:43:15Z</time>
      </trkpt>
      <trkpt lat="43.61579" lon="6.65328">
        <ele>345.6</ele>
        <time>2020-01-08T13:43:19Z</time>
      </trkpt>
      <trkpt lat="43.61582" lon="6.65335">
        <ele>345.8</ele>
        <time>2020-01-08T13:43:24Z</time>
      </trkpt>
      <trkpt lat="43.61583" lon="6.65342">
        <ele>346.2</ele>
        <time>2020-01-08T13:43:29Z</time>
      </trkpt>
      <trkpt lat="43.61585" lon="6.6535">
        <ele>346.4</ele>
        <time>2020-01-08T13:43:33Z</time>
      </trkpt>
      <trkpt lat="43.61586" lon="6.65357">
        <ele>346.7</ele>
        <time>2020-01-08T13:43:37Z</time>
      </trkpt>
      <trkpt lat="43.61586" lon="6.65365">
        <ele>347.1</ele>
        <time>2020-01-08T13:43:41Z</time>
      </trkpt>
      <trkpt lat="43.61587" lon="6.65372">
        <ele>347.6</ele>
        <time>2020-01-08T13:43:44Z</time>
      </trkpt>
      <trkpt lat="43.61587" lon="6.65379">
        <ele>348.1</ele>
        <time>2020-01-08T13:43:49Z</time>
      </trkpt>
      <trkpt lat="43.61588" lon="6.65386">
        <ele>348.5</ele>
        <time>2020-01-08T13:43:54Z</time>
      </trkpt>
      <trkpt lat="43.61588" lon="6.65392">
        <ele>348.7</ele>
        <time>2020-01-08T13:43:58Z</time>
      </trkpt>
      <trkpt lat="43.61589" lon="6.65399">
        <ele>348.9</ele>
        <time>2020-01-08T13:44:03Z</time>
      </trkpt>
      <trkpt lat="43.61588" lon="6.65406">
        <ele>349.4</ele>
        <time>2020-01-08T13:44:09Z</time>
      </trkpt>
      <trkpt lat="43.61583" lon="6.65411">
        <ele>349.8</ele>
        <time>2020-01-08T13:44:15Z</time>
      </trkpt>
      <trkpt lat="43.61578" lon="6.65412">
        <ele>350</ele>
        <time>2020-01-08T13:44:18Z</time>
      </trkpt>
      <trkpt lat="43.61573" lon="6.65414">
        <ele>350.2</ele>
        <time>2020-01-08T13:44:21Z</time>
      </trkpt>
      <trkpt lat="43.61568" lon="6.65417">
        <ele>350.4</ele>
        <time>2020-01-08T13:44:24Z</time>
      </trkpt>
      <trkpt lat="43.61564" lon="6.6542">
        <ele>350.5</ele>
        <time>2020-01-08T13:44:27Z</time>
      </trkpt>
      <trkpt lat="43.6156" lon="6.65423">
        <ele>350.6</ele>
        <time>2020-01-08T13:44:30Z</time>
      </trkpt>
      <trkpt lat="43.61555" lon="6.65427">
        <ele>350.8</ele>
        <time>2020-01-08T13:44:34Z</time>
      </trkpt>
      <trkpt lat="43.61551" lon="6.6543">
        <ele>350.9</ele>
        <time>2020-01-08T13:44:37Z</time>
      </trkpt>
      <trkpt lat="43.61547" lon="6.65434">
        <ele>351.1</ele>
        <time>2020-01-08T13:44:41Z</time>
      </trkpt>
      <trkpt lat="43.61542" lon="6.65437">
        <ele>351.3</ele>
        <time>2020-01-08T13:44:45Z</time>
      </trkpt>
      <trkpt lat="43.61537" lon="6.65441">
        <ele>351.5</ele>
        <time>2020-01-08T13:44:48Z</time>
      </trkpt>
      <trkpt lat="43.61532" lon="6.65445">
        <ele>351.6</ele>
        <time>2020-01-08T13:44:51Z</time>
      </trkpt>
      <trkpt lat="43.61528" lon="6.65449">
        <ele>351.7</ele>
        <time>2020-01-08T13:44:54Z</time>
      </trkpt>
      <trkpt lat="43.61524" lon="6.65453">
        <ele>351.8</ele>
        <time>2020-01-08T13:44:57Z</time>
      </trkpt>
      <trkpt lat="43.6152" lon="6.65457">
        <ele>351.9</ele>
        <time>2020-01-08T13:45:00Z</time>
      </trkpt>
      <trkpt lat="43.61516" lon="6.65461">
        <ele>352.1</ele>
        <time>2020-01-08T13:45:03Z</time>
      </trkpt>
      <trkpt lat="43.61512" lon="6.65466">
        <ele>352.1</ele>
        <time>2020-01-08T13:45:06Z</time>
      </trkpt>
      <trkpt lat="43.61509" lon="6.6547">
        <ele>352.2</ele>
        <time>2020-01-08T13:45:09Z</time>
      </trkpt>
      <trkpt lat="43.61505" lon="6.65476">
        <ele>352.2</ele>
        <time>2020-01-08T13:45:13Z</time>
      </trkpt>
      <trkpt lat="43.61502" lon="6.65481">
        <ele>351.9</ele>
        <time>2020-01-08T13:45:16Z</time>
      </trkpt>
      <trkpt lat="43.61499" lon="6.65486">
        <ele>351.5</ele>
        <time>2020-01-08T13:45:20Z</time>
      </trkpt>
      <trkpt lat="43.61495" lon="6.65489">
        <ele>351.2</ele>
        <time>2020-01-08T13:45:25Z</time>
      </trkpt>
      <trkpt lat="43.61491" lon="6.65494">
        <ele>350.8</ele>
        <time>2020-01-08T13:45:30Z</time>
      </trkpt>
      <trkpt lat="43.61488" lon="6.65499">
        <ele>350.4</ele>
        <time>2020-01-08T13:45:33Z</time>
      </trkpt>
      <trkpt lat="43.61484" lon="6.65504">
        <ele>350.1</ele>
        <time>2020-01-08T13:45:37Z</time>
      </trkpt>
      <trkpt lat="43.6148" lon="6.65509">
        <ele>349.9</ele>
        <time>2020-01-08T13:45:41Z</time>
      </trkpt>
      <trkpt lat="43.61475" lon="6.65513">
        <ele>349.2</ele>
        <time>2020-01-08T13:45:44Z</time>
      </trkpt>
      <trkpt lat="43.61473" lon="6.65519">
        <ele>348.7</ele>
        <time>2020-01-08T13:45:49Z</time>
      </trkpt>
      <trkpt lat="43.61474" lon="6.65525">
        <ele>348.3</ele>
        <time>2020-01-08T13:45:52Z</time>
      </trkpt>
      <trkpt lat="43.61477" lon="6.65531">
        <ele>347.9</ele>
        <time>2020-01-08T13:45:55Z</time>
      </trkpt>
      <trkpt lat="43.6148" lon="6.65537">
        <ele>347.5</ele>
        <time>2020-01-08T13:45:58Z</time>
      </trkpt>
      <trkpt lat="43.61482" lon="6.65544">
        <ele>347.2</ele>
        <time>2020-01-08T13:46:01Z</time>
      </trkpt>
      <trkpt lat="43.61483" lon="6.65551">
        <ele>346.8</ele>
        <time>2020-01-08T13:46:04Z</time>
      </trkpt>
      <trkpt lat="43.61485" lon="6.65557">
        <ele>346.7</ele>
        <time>2020-01-08T13:46:07Z</time>
      </trkpt>
      <trkpt lat="43.61488" lon="6.65564">
        <ele>346.4</ele>
        <time>2020-01-08T13:46:10Z</time>
      </trkpt>
      <trkpt lat="43.6149" lon="6.65571">
        <ele>346.2</ele>
        <time>2020-01-08T13:46:13Z</time>
      </trkpt>
      <trkpt lat="43.61492" lon="6.65577">
        <ele>346</ele>
        <time>2020-01-08T13:46:16Z</time>
      </trkpt>
      <trkpt lat="43.61495" lon="6.65584">
        <ele>345.6</ele>
        <time>2020-01-08T13:46:19Z</time>
      </trkpt>
      <trkpt lat="43.61498" lon="6.65588">
        <ele>345</ele>
        <time>2020-01-08T13:46:24Z</time>
      </trkpt>
      <trkpt lat="43.61501" lon="6.65593">
        <ele>344.3</ele>
        <time>2020-01-08T13:46:37Z</time>
      </trkpt>
      <trkpt lat="43.61505" lon="6.65598">
        <ele>344.5</ele>
        <time>2020-01-08T13:46:41Z</time>
      </trkpt>
      <trkpt lat="43.61507" lon="6.65603">
        <ele>344.2</ele>
        <time>2020-01-08T13:46:45Z</time>
      </trkpt>
      <trkpt lat="43.61511" lon="6.65609">
        <ele>344</ele>
        <time>2020-01-08T13:46:49Z</time>
      </trkpt>
      <trkpt lat="43.61515" lon="6.65614">
        <ele>343.7</ele>
        <time>2020-01-08T13:46:53Z</time>
      </trkpt>
      <trkpt lat="43.61519" lon="6.65619">
        <ele>343.3</ele>
        <time>2020-01-08T13:46:57Z</time>
      </trkpt>
      <trkpt lat="43.61523" lon="6.65624">
        <ele>342.7</ele>
        <time>2020-01-08T13:47:00Z</time>
      </trkpt>
      <trkpt lat="43.61527" lon="6.65629">
        <ele>342</ele>
        <time>2020-01-08T13:47:03Z</time>
      </trkpt>
      <trkpt lat="43.6153" lon="6.65634">
        <ele>341.3</ele>
        <time>2020-01-08T13:47:06Z</time>
      </trkpt>
      <trkpt lat="43.61534" lon="6.65641">
        <ele>340.5</ele>
        <time>2020-01-08T13:47:09Z</time>
      </trkpt>
      <trkpt lat="43.61537" lon="6.65649">
        <ele>339.4</ele>
        <time>2020-01-08T13:47:12Z</time>
      </trkpt>
      <trkpt lat="43.61541" lon="6.65654">
        <ele>338.2</ele>
        <time>2020-01-08T13:47:16Z</time>
      </trkpt>
      <trkpt lat="43.61546" lon="6.65658">
        <ele>337.3</ele>
        <time>2020-01-08T13:47:20Z</time>
      </trkpt>
      <trkpt lat="43.61551" lon="6.65661">
        <ele>336.5</ele>
        <time>2020-01-08T13:47:24Z</time>
      </trkpt>
      <trkpt lat="43.61556" lon="6.65661">
        <ele>335.8</ele>
        <time>2020-01-08T13:47:27Z</time>
      </trkpt>
      <trkpt lat="43.6156" lon="6.65659">
        <ele>335.2</ele>
        <time>2020-01-08T13:47:30Z</time>
      </trkpt>
      <trkpt lat="43.61565" lon="6.65657">
        <ele>334.6</ele>
        <time>2020-01-08T13:47:34Z</time>
      </trkpt>
      <trkpt lat="43.6157" lon="6.65657">
        <ele>334.3</ele>
        <time>2020-01-08T13:47:39Z</time>
      </trkpt>
      <trkpt lat="43.61575" lon="6.65656">
        <ele>334.2</ele>
        <time>2020-01-08T13:47:42Z</time>
      </trkpt>
      <trkpt lat="43.61579" lon="6.65655">
        <ele>334.1</ele>
        <time>2020-01-08T13:47:45Z</time>
      </trkpt>
      <trkpt lat="43.61585" lon="6.65655">
        <ele>334.1</ele>
        <time>2020-01-08T13:47:49Z</time>
      </trkpt>
      <trkpt lat="43.6159" lon="6.65654">
        <ele>334.2</ele>
        <time>2020-01-08T13:47:54Z</time>
      </trkpt>
      <trkpt lat="43.61595" lon="6.65654">
        <ele>334.4</ele>
        <time>2020-01-08T13:47:58Z</time>
      </trkpt>
      <trkpt lat="43.61601" lon="6.65654">
        <ele>334.5</ele>
        <time>2020-01-08T13:48:02Z</time>
      </trkpt>
      <trkpt lat="43.61605" lon="6.65655">
        <ele>334.6</ele>
        <time>2020-01-08T13:48:06Z</time>
      </trkpt>
      <trkpt lat="43.6161" lon="6.65653">
        <ele>335</ele>
        <time>2020-01-08T13:48:10Z</time>
      </trkpt>
      <trkpt lat="43.61616" lon="6.6565">
        <ele>335.7</ele>
        <time>2020-01-08T13:48:14Z</time>
      </trkpt>
      <trkpt lat="43.61621" lon="6.65649">
        <ele>336.3</ele>
        <time>2020-01-08T13:48:17Z</time>
      </trkpt>
      <trkpt lat="43.61626" lon="6.65649">
        <ele>337</ele>
        <time>2020-01-08T13:48:20Z</time>
      </trkpt>
      <trkpt lat="43.61631" lon="6.6565">
        <ele>338.2</ele>
        <time>2020-01-08T13:48:25Z</time>
      </trkpt>
      <trkpt lat="43.61636" lon="6.65652">
        <ele>339.3</ele>
        <time>2020-01-08T13:48:31Z</time>
      </trkpt>
      <trkpt lat="43.61641" lon="6.65653">
        <ele>339.4</ele>
        <time>2020-01-08T13:48:35Z</time>
      </trkpt>
      <trkpt lat="43.61646" lon="6.65652">
        <ele>339.3</ele>
        <time>2020-01-08T13:48:39Z</time>
      </trkpt>
      <trkpt lat="43.61651" lon="6.65652">
        <ele>339.2</ele>
        <time>2020-01-08T13:48:42Z</time>
      </trkpt>
      <trkpt lat="43.61657" lon="6.65652">
        <ele>338.7</ele>
        <time>2020-01-08T13:48:45Z</time>
      </trkpt>
      <trkpt lat="43.61661" lon="6.65653">
        <ele>337.9</ele>
        <time>2020-01-08T13:48:48Z</time>
      </trkpt>
      <trkpt lat="43.61663" lon="6.65659">
        <ele>336.6</ele>
        <time>2020-01-08T13:48:54Z</time>
      </trkpt>
      <trkpt lat="43.61669" lon="6.65658">
        <ele>325.9</ele>
        <time>2020-01-08T14:08:59Z</time>
      </trkpt>
      <trkpt lat="43.61672" lon="6.65652">
        <ele>325.5</ele>
        <time>2020-01-08T14:09:03Z</time>
      </trkpt>
      <trkpt lat="43.61676" lon="6.65648">
        <ele>325.2</ele>
        <time>2020-01-08T14:09:06Z</time>
      </trkpt>
      <trkpt lat="43.61681" lon="6.65642">
        <ele>324.7</ele>
        <time>2020-01-08T14:09:10Z</time>
      </trkpt>
      <trkpt lat="43.61685" lon="6.65639">
        <ele>324.3</ele>
        <time>2020-01-08T14:09:15Z</time>
      </trkpt>
      <trkpt lat="43.61689" lon="6.65635">
        <ele>324</ele>
        <time>2020-01-08T14:09:18Z</time>
      </trkpt>
      <trkpt lat="43.61694" lon="6.65632">
        <ele>323.8</ele>
        <time>2020-01-08T14:09:21Z</time>
      </trkpt>
      <trkpt lat="43.61699" lon="6.65629">
        <ele>323.6</ele>
        <time>2020-01-08T14:09:24Z</time>
      </trkpt>
      <trkpt lat="43.61704" lon="6.65625">
        <ele>323.4</ele>
        <time>2020-01-08T14:09:27Z</time>
      </trkpt>
      <trkpt lat="43.61709" lon="6.65621">
        <ele>323.3</ele>
        <time>2020-01-08T14:09:30Z</time>
      </trkpt>
      <trkpt lat="43.61714" lon="6.65617">
        <ele>323.1</ele>
        <time>2020-01-08T14:09:33Z</time>
      </trkpt>
      <trkpt lat="43.61718" lon="6.65613">
        <ele>322.8</ele>
        <time>2020-01-08T14:09:37Z</time>
      </trkpt>
      <trkpt lat="43.61723" lon="6.65609">
        <ele>322.3</ele>
        <time>2020-01-08T14:09:41Z</time>
      </trkpt>
      <trkpt lat="43.61727" lon="6.65604">
        <ele>322</ele>
        <time>2020-01-08T14:09:45Z</time>
      </trkpt>
      <trkpt lat="43.61731" lon="6.65602">
        <ele>321.9</ele>
        <time>2020-01-08T14:09:48Z</time>
      </trkpt>
      <trkpt lat="43.61736" lon="6.65598">
        <ele>321.8</ele>
        <time>2020-01-08T14:09:51Z</time>
      </trkpt>
      <trkpt lat="43.61741" lon="6.65594">
        <ele>321.7</ele>
        <time>2020-01-08T14:09:54Z</time>
      </trkpt>
      <trkpt lat="43.61746" lon="6.6559">
        <ele>321.7</ele>
        <time>2020-01-08T14:09:58Z</time>
      </trkpt>
      <trkpt lat="43.61751" lon="6.65586">
        <ele>321.8</ele>
        <time>2020-01-08T14:10:02Z</time>
      </trkpt>
      <trkpt lat="43.61755" lon="6.65583">
        <ele>321.9</ele>
        <time>2020-01-08T14:10:06Z</time>
      </trkpt>
      <trkpt lat="43.6176" lon="6.6558">
        <ele>322</ele>
        <time>2020-01-08T14:10:10Z</time>
      </trkpt>
      <trkpt lat="43.61764" lon="6.65577">
        <ele>322.1</ele>
        <time>2020-01-08T14:10:13Z</time>
      </trkpt>
      <trkpt lat="43.61769" lon="6.65574">
        <ele>322.3</ele>
        <time>2020-01-08T14:10:17Z</time>
      </trkpt>
      <trkpt lat="43.61773" lon="6.65573">
        <ele>321.5</ele>
        <time>2020-01-08T14:10:21Z</time>
      </trkpt>
      <trkpt lat="43.61778" lon="6.65571">
        <ele>320.8</ele>
        <time>2020-01-08T14:10:25Z</time>
      </trkpt>
      <trkpt lat="43.61783" lon="6.65569">
        <ele>320.6</ele>
        <time>2020-01-08T14:10:29Z</time>
      </trkpt>
      <trkpt lat="43.61788" lon="6.65565">
        <ele>320.8</ele>
        <time>2020-01-08T14:10:33Z</time>
      </trkpt>
      <trkpt lat="43.61793" lon="6.65562">
        <ele>321</ele>
        <time>2020-01-08T14:10:36Z</time>
      </trkpt>
      <trkpt lat="43.61798" lon="6.65559">
        <ele>321</ele>
        <time>2020-01-08T14:10:39Z</time>
      </trkpt>
      <trkpt lat="43.61803" lon="6.65557">
        <ele>320.8</ele>
        <time>2020-01-08T14:10:42Z</time>
      </trkpt>
      <trkpt lat="43.61807" lon="6.65556">
        <ele>320.4</ele>
        <time>2020-01-08T14:10:46Z</time>
      </trkpt>
      <trkpt lat="43.61812" lon="6.65554">
        <ele>320.1</ele>
        <time>2020-01-08T14:10:50Z</time>
      </trkpt>
      <trkpt lat="43.61818" lon="6.6555">
        <ele>319.9</ele>
        <time>2020-01-08T14:10:54Z</time>
      </trkpt>
      <trkpt lat="43.61822" lon="6.65549">
        <ele>320</ele>
        <time>2020-01-08T14:10:57Z</time>
      </trkpt>
      <trkpt lat="43.61827" lon="6.65547">
        <ele>320.3</ele>
        <time>2020-01-08T14:11:00Z</time>
      </trkpt>
      <trkpt lat="43.61832" lon="6.65545">
        <ele>320.6</ele>
        <time>2020-01-08T14:11:03Z</time>
      </trkpt>
      <trkpt lat="43.61836" lon="6.65544">
        <ele>320.8</ele>
        <time>2020-01-08T14:11:06Z</time>
      </trkpt>
      <trkpt lat="43.61842" lon="6.65542">
        <ele>321.1</ele>
        <time>2020-01-08T14:11:10Z</time>
      </trkpt>
      <trkpt lat="43.61847" lon="6.6554">
        <ele>321.4</ele>
        <time>2020-01-08T14:11:14Z</time>
      </trkpt>
      <trkpt lat="43.61852" lon="6.65538">
        <ele>321.8</ele>
        <time>2020-01-08T14:11:18Z</time>
      </trkpt>
      <trkpt lat="43.61857" lon="6.65538">
        <ele>322.2</ele>
        <time>2020-01-08T14:11:22Z</time>
      </trkpt>
      <trkpt lat="43.61859" lon="6.65544">
        <ele>323.1</ele>
        <time>2020-01-08T14:11:28Z</time>
      </trkpt>
      <trkpt lat="43.61859" lon="6.6555">
        <ele>324</ele>
        <time>2020-01-08T14:11:34Z</time>
      </trkpt>
      <trkpt lat="43.61858" lon="6.65556">
        <ele>324.7</ele>
        <time>2020-01-08T14:11:38Z</time>
      </trkpt>
      <trkpt lat="43.61855" lon="6.65562">
        <ele>325.9</ele>
        <time>2020-01-08T14:11:44Z</time>
      </trkpt>
      <trkpt lat="43.61853" lon="6.65569">
        <ele>327.1</ele>
        <time>2020-01-08T14:11:50Z</time>
      </trkpt>
      <trkpt lat="43.61852" lon="6.65575">
        <ele>327.4</ele>
        <time>2020-01-08T14:11:53Z</time>
      </trkpt>
      <trkpt lat="43.61849" lon="6.65581">
        <ele>327.8</ele>
        <time>2020-01-08T14:11:57Z</time>
      </trkpt>
      <trkpt lat="43.61845" lon="6.65586">
        <ele>328.4</ele>
        <time>2020-01-08T14:12:02Z</time>
      </trkpt>
      <trkpt lat="43.61843" lon="6.65593">
        <ele>328.8</ele>
        <time>2020-01-08T14:12:05Z</time>
      </trkpt>
      <trkpt lat="43.61842" lon="6.65601">
        <ele>329.1</ele>
        <time>2020-01-08T14:12:08Z</time>
      </trkpt>
      <trkpt lat="43.61841" lon="6.65609">
        <ele>329.3</ele>
        <time>2020-01-08T14:12:11Z</time>
      </trkpt>
      <trkpt lat="43.61841" lon="6.65616">
        <ele>329.5</ele>
        <time>2020-01-08T14:12:14Z</time>
      </trkpt>
      <trkpt lat="43.61841" lon="6.65623">
        <ele>329.4</ele>
        <time>2020-01-08T14:12:17Z</time>
      </trkpt>
      <trkpt lat="43.61839" lon="6.65629">
        <ele>329.6</ele>
        <time>2020-01-08T14:12:22Z</time>
      </trkpt>
      <trkpt lat="43.61838" lon="6.65636">
        <ele>329.4</ele>
        <time>2020-01-08T14:12:25Z</time>
      </trkpt>
      <trkpt lat="43.61835" lon="6.65642">
        <ele>329.5</ele>
        <time>2020-01-08T14:12:29Z</time>
      </trkpt>
      <trkpt lat="43.61831" lon="6.65647">
        <ele>329.9</ele>
        <time>2020-01-08T14:12:33Z</time>
      </trkpt>
      <trkpt lat="43.61827" lon="6.65651">
        <ele>330.4</ele>
        <time>2020-01-08T14:12:38Z</time>
      </trkpt>
      <trkpt lat="43.61825" lon="6.65656">
        <ele>330.6</ele>
        <time>2020-01-08T14:12:42Z</time>
      </trkpt>
      <trkpt lat="43.61821" lon="6.65659">
        <ele>331.1</ele>
        <time>2020-01-08T14:12:46Z</time>
      </trkpt>
      <trkpt lat="43.61816" lon="6.65663">
        <ele>331.8</ele>
        <time>2020-01-08T14:12:50Z</time>
      </trkpt>
      <trkpt lat="43.61812" lon="6.65668">
        <ele>332.4</ele>
        <time>2020-01-08T14:12:54Z</time>
      </trkpt>
      <trkpt lat="43.61808" lon="6.65673">
        <ele>332.9</ele>
        <time>2020-01-08T14:12:58Z</time>
      </trkpt>
      <trkpt lat="43.61805" lon="6.65678">
        <ele>333.1</ele>
        <time>2020-01-08T14:13:01Z</time>
      </trkpt>
      <trkpt lat="43.61803" lon="6.65685">
        <ele>333.3</ele>
        <time>2020-01-08T14:13:04Z</time>
      </trkpt>
      <trkpt lat="43.61801" lon="6.65692">
        <ele>333.4</ele>
        <time>2020-01-08T14:13:07Z</time>
      </trkpt>
      <trkpt lat="43.61799" lon="6.65698">
        <ele>333.4</ele>
        <time>2020-01-08T14:13:10Z</time>
      </trkpt>
      <trkpt lat="43.61799" lon="6.65705">
        <ele>333.3</ele>
        <time>2020-01-08T14:13:13Z</time>
      </trkpt>
      <trkpt lat="43.61798" lon="6.65712">
        <ele>333.3</ele>
        <time>2020-01-08T14:13:16Z</time>
      </trkpt>
      <trkpt lat="43.61798" lon="6.65719">
        <ele>333.4</ele>
        <time>2020-01-08T14:13:20Z</time>
      </trkpt>
      <trkpt lat="43.61798" lon="6.65727">
        <ele>333.3</ele>
        <time>2020-01-08T14:13:23Z</time>
      </trkpt>
      <trkpt lat="43.61798" lon="6.65733">
        <ele>333.2</ele>
        <time>2020-01-08T14:13:26Z</time>
      </trkpt>
      <trkpt lat="43.61798" lon="6.6574">
        <ele>333</ele>
        <time>2020-01-08T14:13:29Z</time>
      </trkpt>
      <trkpt lat="43.61798" lon="6.65747">
        <ele>332.8</ele>
        <time>2020-01-08T14:13:33Z</time>
      </trkpt>
      <trkpt lat="43.61798" lon="6.65754">
        <ele>332.9</ele>
        <time>2020-01-08T14:13:37Z</time>
      </trkpt>
      <trkpt lat="43.61798" lon="6.65762">
        <ele>333.1</ele>
        <time>2020-01-08T14:13:41Z</time>
      </trkpt>
      <trkpt lat="43.61798" lon="6.65769">
        <ele>333.1</ele>
        <time>2020-01-08T14:13:44Z</time>
      </trkpt>
      <trkpt lat="43.61798" lon="6.65776">
        <ele>332.7</ele>
        <time>2020-01-08T14:13:49Z</time>
      </trkpt>
      <trkpt lat="43.61798" lon="6.65782">
        <ele>332.6</ele>
        <time>2020-01-08T14:13:55Z</time>
      </trkpt>
      <trkpt lat="43.61799" lon="6.65789">
        <ele>333.1</ele>
        <time>2020-01-08T14:14:01Z</time>
      </trkpt>
      <trkpt lat="43.61799" lon="6.65797">
        <ele>333.4</ele>
        <time>2020-01-08T14:14:06Z</time>
      </trkpt>
      <trkpt lat="43.61798" lon="6.65803">
        <ele>333.7</ele>
        <time>2020-01-08T14:14:09Z</time>
      </trkpt>
      <trkpt lat="43.61797" lon="6.65811">
        <ele>334.2</ele>
        <time>2020-01-08T14:14:13Z</time>
      </trkpt>
      <trkpt lat="43.618" lon="6.65817">
        <ele>334.2</ele>
        <time>2020-01-08T14:14:17Z</time>
      </trkpt>
      <trkpt lat="43.618" lon="6.65825">
        <ele>334.3</ele>
        <time>2020-01-08T14:14:21Z</time>
      </trkpt>
      <trkpt lat="43.61802" lon="6.65832">
        <ele>334.4</ele>
        <time>2020-01-08T14:14:24Z</time>
      </trkpt>
      <trkpt lat="43.61803" lon="6.65839">
        <ele>334.7</ele>
        <time>2020-01-08T14:14:28Z</time>
      </trkpt>
      <trkpt lat="43.61806" lon="6.65845">
        <ele>335.1</ele>
        <time>2020-01-08T14:14:32Z</time>
      </trkpt>
      <trkpt lat="43.61808" lon="6.65851">
        <ele>335.4</ele>
        <time>2020-01-08T14:14:35Z</time>
      </trkpt>
      <trkpt lat="43.61811" lon="6.65858">
        <ele>335.9</ele>
        <time>2020-01-08T14:14:39Z</time>
      </trkpt>
      <trkpt lat="43.61812" lon="6.65865">
        <ele>336.2</ele>
        <time>2020-01-08T14:14:43Z</time>
      </trkpt>
      <trkpt lat="43.61814" lon="6.65871">
        <ele>336.5</ele>
        <time>2020-01-08T14:14:47Z</time>
      </trkpt>
      <trkpt lat="43.61817" lon="6.65877">
        <ele>336.9</ele>
        <time>2020-01-08T14:14:51Z</time>
      </trkpt>
      <trkpt lat="43.61821" lon="6.65883">
        <ele>337.2</ele>
        <time>2020-01-08T14:14:55Z</time>
      </trkpt>
      <trkpt lat="43.61825" lon="6.65888">
        <ele>337.6</ele>
        <time>2020-01-08T14:14:59Z</time>
      </trkpt>
      <trkpt lat="43.61829" lon="6.65893">
        <ele>338.2</ele>
        <time>2020-01-08T14:15:03Z</time>
      </trkpt>
      <trkpt lat="43.61833" lon="6.65896">
        <ele>338.5</ele>
        <time>2020-01-08T14:15:06Z</time>
      </trkpt>
      <trkpt lat="43.61836" lon="6.65902">
        <ele>339</ele>
        <time>2020-01-08T14:15:10Z</time>
      </trkpt>
      <trkpt lat="43.61842" lon="6.65905">
        <ele>339</ele>
        <time>2020-01-08T14:15:15Z</time>
      </trkpt>
      <trkpt lat="43.61846" lon="6.65907">
        <ele>338.3</ele>
        <time>2020-01-08T14:15:19Z</time>
      </trkpt>
      <trkpt lat="43.61847" lon="6.65913">
        <ele>337.2</ele>
        <time>2020-01-08T14:15:25Z</time>
      </trkpt>
      <trkpt lat="43.61845" lon="6.6592">
        <ele>336.4</ele>
        <time>2020-01-08T14:15:30Z</time>
      </trkpt>
      <trkpt lat="43.6185" lon="6.65925">
        <ele>335.9</ele>
        <time>2020-01-08T14:15:35Z</time>
      </trkpt>
      <trkpt lat="43.61854" lon="6.65928">
        <ele>335.7</ele>
        <time>2020-01-08T14:15:38Z</time>
      </trkpt>
      <trkpt lat="43.61858" lon="6.65931">
        <ele>335.5</ele>
        <time>2020-01-08T14:15:41Z</time>
      </trkpt>
      <trkpt lat="43.61862" lon="6.65934">
        <ele>335.4</ele>
        <time>2020-01-08T14:15:44Z</time>
      </trkpt>
      <trkpt lat="43.61866" lon="6.65939">
        <ele>335.3</ele>
        <time>2020-01-08T14:15:47Z</time>
      </trkpt>
      <trkpt lat="43.61868" lon="6.65944">
        <ele>334.8</ele>
        <time>2020-01-08T14:15:50Z</time>
      </trkpt>
      <trkpt lat="43.6187" lon="6.65951">
        <ele>333.7</ele>
        <time>2020-01-08T14:15:54Z</time>
      </trkpt>
      <trkpt lat="43.61873" lon="6.65958">
        <ele>332</ele>
        <time>2020-01-08T14:15:58Z</time>
      </trkpt>
      <trkpt lat="43.61874" lon="6.65965">
        <ele>330.2</ele>
        <time>2020-01-08T14:16:02Z</time>
      </trkpt>
      <trkpt lat="43.61872" lon="6.6597">
        <ele>326.9</ele>
        <time>2020-01-08T14:16:11Z</time>
      </trkpt>
      <trkpt lat="43.61868" lon="6.65976">
        <ele>324.7</ele>
        <time>2020-01-08T14:16:17Z</time>
      </trkpt>
      <trkpt lat="43.61865" lon="6.6598">
        <ele>323</ele>
        <time>2020-01-08T14:16:22Z</time>
      </trkpt>
      <trkpt lat="43.61863" lon="6.65987">
        <ele>321.6</ele>
        <time>2020-01-08T14:16:27Z</time>
      </trkpt>
      <trkpt lat="43.61863" lon="6.65995">
        <ele>320.6</ele>
        <time>2020-01-08T14:16:31Z</time>
      </trkpt>
      <trkpt lat="43.61862" lon="6.66001">
        <ele>319.9</ele>
        <time>2020-01-08T14:16:34Z</time>
      </trkpt>
      <trkpt lat="43.61862" lon="6.66008">
        <ele>319.4</ele>
        <time>2020-01-08T14:16:37Z</time>
      </trkpt>
      <trkpt lat="43.61864" lon="6.66016">
        <ele>319</ele>
        <time>2020-01-08T14:16:40Z</time>
      </trkpt>
      <trkpt lat="43.61866" lon="6.66022">
        <ele>318.7</ele>
        <time>2020-01-08T14:16:43Z</time>
      </trkpt>
      <trkpt lat="43.61867" lon="6.66029">
        <ele>318.6</ele>
        <time>2020-01-08T14:16:46Z</time>
      </trkpt>
      <trkpt lat="43.6187" lon="6.66036">
        <ele>318.6</ele>
        <time>2020-01-08T14:16:49Z</time>
      </trkpt>
      <trkpt lat="43.61873" lon="6.66042">
        <ele>318.9</ele>
        <time>2020-01-08T14:16:53Z</time>
      </trkpt>
      <trkpt lat="43.61876" lon="6.66047">
        <ele>319.2</ele>
        <time>2020-01-08T14:16:57Z</time>
      </trkpt>
      <trkpt lat="43.6188" lon="6.66052">
        <ele>319.5</ele>
        <time>2020-01-08T14:17:02Z</time>
      </trkpt>
      <trkpt lat="43.61884" lon="6.66057">
        <ele>319.8</ele>
        <time>2020-01-08T14:17:06Z</time>
      </trkpt>
      <trkpt lat="43.61886" lon="6.66063">
        <ele>320.1</ele>
        <time>2020-01-08T14:17:11Z</time>
      </trkpt>
      <trkpt lat="43.61886" lon="6.6607">
        <ele>320.4</ele>
        <time>2020-01-08T14:17:18Z</time>
      </trkpt>
      <trkpt lat="43.61888" lon="6.66077">
        <ele>320.4</ele>
        <time>2020-01-08T14:17:25Z</time>
      </trkpt>
      <trkpt lat="43.61889" lon="6.66083">
        <ele>320.6</ele>
        <time>2020-01-08T14:17:31Z</time>
      </trkpt>
      <trkpt lat="43.6189" lon="6.6609">
        <ele>320.8</ele>
        <time>2020-01-08T14:17:36Z</time>
      </trkpt>
      <trkpt lat="43.61889" lon="6.66098">
        <ele>320.8</ele>
        <time>2020-01-08T14:17:40Z</time>
      </trkpt>
      <trkpt lat="43.61888" lon="6.66104">
        <ele>320.8</ele>
        <time>2020-01-08T14:17:44Z</time>
      </trkpt>
      <trkpt lat="43.61887" lon="6.66111">
        <ele>321.3</ele>
        <time>2020-01-08T14:17:49Z</time>
      </trkpt>
      <trkpt lat="43.61888" lon="6.66118">
        <ele>321.5</ele>
        <time>2020-01-08T14:17:53Z</time>
      </trkpt>
      <trkpt lat="43.6189" lon="6.66123">
        <ele>321.6</ele>
        <time>2020-01-08T14:17:57Z</time>
      </trkpt>
      <trkpt lat="43.61895" lon="6.66129">
        <ele>321.7</ele>
        <time>2020-01-08T14:18:01Z</time>
      </trkpt>
      <trkpt lat="43.61898" lon="6.66134">
        <ele>321.8</ele>
        <time>2020-01-08T14:18:04Z</time>
      </trkpt>
      <trkpt lat="43.61901" lon="6.66139">
        <ele>322</ele>
        <time>2020-01-08T14:18:09Z</time>
      </trkpt>
      <trkpt lat="43.61903" lon="6.66145">
        <ele>322.2</ele>
        <time>2020-01-08T14:18:13Z</time>
      </trkpt>
      <trkpt lat="43.61907" lon="6.66151">
        <ele>322.3</ele>
        <time>2020-01-08T14:18:17Z</time>
      </trkpt>
      <trkpt lat="43.61911" lon="6.66155">
        <ele>322.5</ele>
        <time>2020-01-08T14:18:21Z</time>
      </trkpt>
      <trkpt lat="43.61915" lon="6.66159">
        <ele>322.7</ele>
        <time>2020-01-08T14:18:24Z</time>
      </trkpt>
      <trkpt lat="43.6192" lon="6.66164">
        <ele>322.9</ele>
        <time>2020-01-08T14:18:28Z</time>
      </trkpt>
      <trkpt lat="43.61924" lon="6.66168">
        <ele>323.2</ele>
        <time>2020-01-08T14:18:32Z</time>
      </trkpt>
      <trkpt lat="43.61928" lon="6.66172">
        <ele>323.4</ele>
        <time>2020-01-08T14:18:37Z</time>
      </trkpt>
      <trkpt lat="43.61931" lon="6.66177">
        <ele>323.5</ele>
        <time>2020-01-08T14:18:41Z</time>
      </trkpt>
      <trkpt lat="43.61934" lon="6.66182">
        <ele>323.5</ele>
        <time>2020-01-08T14:18:44Z</time>
      </trkpt>
      <trkpt lat="43.61939" lon="6.66187">
        <ele>323.3</ele>
        <time>2020-01-08T14:18:48Z</time>
      </trkpt>
      <trkpt lat="43.61943" lon="6.66192">
        <ele>323</ele>
        <time>2020-01-08T14:18:52Z</time>
      </trkpt>
      <trkpt lat="43.61944" lon="6.66198">
        <ele>322.7</ele>
        <time>2020-01-08T14:18:56Z</time>
      </trkpt>
      <trkpt lat="43.61945" lon="6.66206">
        <ele>322.4</ele>
        <time>2020-01-08T14:19:01Z</time>
      </trkpt>
      <trkpt lat="43.61945" lon="6.66212">
        <ele>322.2</ele>
        <time>2020-01-08T14:19:05Z</time>
      </trkpt>
      <trkpt lat="43.61946" lon="6.66218">
        <ele>321.9</ele>
        <time>2020-01-08T14:19:09Z</time>
      </trkpt>
      <trkpt lat="43.61948" lon="6.66224">
        <ele>321.4</ele>
        <time>2020-01-08T14:19:12Z</time>
      </trkpt>
      <trkpt lat="43.61951" lon="6.66229">
        <ele>320.6</ele>
        <time>2020-01-08T14:19:16Z</time>
      </trkpt>
      <trkpt lat="43.61955" lon="6.66234">
        <ele>320</ele>
        <time>2020-01-08T14:19:19Z</time>
      </trkpt>
      <trkpt lat="43.61959" lon="6.6624">
        <ele>319.4</ele>
        <time>2020-01-08T14:19:22Z</time>
      </trkpt>
      <trkpt lat="43.61963" lon="6.66245">
        <ele>318.9</ele>
        <time>2020-01-08T14:19:25Z</time>
      </trkpt>
      <trkpt lat="43.61967" lon="6.6625">
        <ele>318.4</ele>
        <time>2020-01-08T14:19:28Z</time>
      </trkpt>
      <trkpt lat="43.61971" lon="6.66253">
        <ele>317.6</ele>
        <time>2020-01-08T14:19:31Z</time>
      </trkpt>
      <trkpt lat="43.61976" lon="6.66252">
        <ele>315.8</ele>
        <time>2020-01-08T14:19:36Z</time>
      </trkpt>
      <trkpt lat="43.61978" lon="6.66246">
        <ele>312.9</ele>
        <time>2020-01-08T14:19:46Z</time>
      </trkpt>
      <trkpt lat="43.61975" lon="6.6624">
        <ele>311.6</ele>
        <time>2020-01-08T14:19:52Z</time>
      </trkpt>
      <trkpt lat="43.61972" lon="6.66246">
        <ele>309.3</ele>
        <time>2020-01-08T14:20:03Z</time>
      </trkpt>
      <trkpt lat="43.61975" lon="6.66252">
        <ele>308</ele>
        <time>2020-01-08T14:20:08Z</time>
      </trkpt>
      <trkpt lat="43.61979" lon="6.66257">
        <ele>306.8</ele>
        <time>2020-01-08T14:20:12Z</time>
      </trkpt>
      <trkpt lat="43.61979" lon="6.66264">
        <ele>305.5</ele>
        <time>2020-01-08T14:20:17Z</time>
      </trkpt>
      <trkpt lat="43.61978" lon="6.6627">
        <ele>303.8</ele>
        <time>2020-01-08T14:20:23Z</time>
      </trkpt>
      <trkpt lat="43.61976" lon="6.66276">
        <ele>302.4</ele>
        <time>2020-01-08T14:20:28Z</time>
      </trkpt>
      <trkpt lat="43.61972" lon="6.66281">
        <ele>301.2</ele>
        <time>2020-01-08T14:20:32Z</time>
      </trkpt>
      <trkpt lat="43.61969" lon="6.66287">
        <ele>299.6</ele>
        <time>2020-01-08T14:20:38Z</time>
      </trkpt>
      <trkpt lat="43.61966" lon="6.66291">
        <ele>298.2</ele>
        <time>2020-01-08T14:20:44Z</time>
      </trkpt>
      <trkpt lat="43.61962" lon="6.66297">
        <ele>297.2</ele>
        <time>2020-01-08T14:20:49Z</time>
      </trkpt>
      <trkpt lat="43.6196" lon="6.66302">
        <ele>296.5</ele>
        <time>2020-01-08T14:20:53Z</time>
      </trkpt>
      <trkpt lat="43.61957" lon="6.66308">
        <ele>295.7</ele>
        <time>2020-01-08T14:20:59Z</time>
      </trkpt>
      <trkpt lat="43.61954" lon="6.66314">
        <ele>295.3</ele>
        <time>2020-01-08T14:21:03Z</time>
      </trkpt>
      <trkpt lat="43.61952" lon="6.66321">
        <ele>295</ele>
        <time>2020-01-08T14:21:06Z</time>
      </trkpt>
      <trkpt lat="43.6195" lon="6.66327">
        <ele>294.5</ele>
        <time>2020-01-08T14:21:10Z</time>
      </trkpt>
      <trkpt lat="43.61949" lon="6.66333">
        <ele>294</ele>
        <time>2020-01-08T14:21:15Z</time>
      </trkpt>
      <trkpt lat="43.61951" lon="6.6634">
        <ele>293.6</ele>
        <time>2020-01-08T14:21:19Z</time>
      </trkpt>
      <trkpt lat="43.61952" lon="6.66348">
        <ele>293.3</ele>
        <time>2020-01-08T14:21:23Z</time>
      </trkpt>
      <trkpt lat="43.61954" lon="6.66354">
        <ele>293.1</ele>
        <time>2020-01-08T14:21:26Z</time>
      </trkpt>
      <trkpt lat="43.61957" lon="6.66359">
        <ele>292.7</ele>
        <time>2020-01-08T14:21:32Z</time>
      </trkpt>
      <trkpt lat="43.61959" lon="6.66365">
        <ele>292</ele>
        <time>2020-01-08T14:21:43Z</time>
      </trkpt>
      <trkpt lat="43.61963" lon="6.6637">
        <ele>291.7</ele>
        <time>2020-01-08T14:21:48Z</time>
      </trkpt>
      <trkpt lat="43.61965" lon="6.66364">
        <ele>291.1</ele>
        <time>2020-01-08T14:21:59Z</time>
      </trkpt>
      <trkpt lat="43.61962" lon="6.66358">
        <ele>290.7</ele>
        <time>2020-01-08T14:22:06Z</time>
      </trkpt>
      <trkpt lat="43.61957" lon="6.66355">
        <ele>290.3</ele>
        <time>2020-01-08T14:22:11Z</time>
      </trkpt>
      <trkpt lat="43.61954" lon="6.66351">
        <ele>289.7</ele>
        <time>2020-01-08T14:22:18Z</time>
      </trkpt>
      <trkpt lat="43.61951" lon="6.66346">
        <ele>289.3</ele>
        <time>2020-01-08T14:22:27Z</time>
      </trkpt>
      <trkpt lat="43.61946" lon="6.66339">
        <ele>289</ele>
        <time>2020-01-08T14:23:01Z</time>
      </trkpt>
      <trkpt lat="43.61942" lon="6.6634">
        <ele>288.6</ele>
        <time>2020-01-08T14:23:25Z</time>
      </trkpt>
      <trkpt lat="43.61943" lon="6.66346">
        <ele>288.7</ele>
        <time>2020-01-08T14:23:31Z</time>
      </trkpt>
      <trkpt lat="43.61947" lon="6.66345">
        <ele>287.5</ele>
        <time>2020-01-08T14:24:09Z</time>
      </trkpt>
      <trkpt lat="43.6195" lon="6.66351">
        <ele>287</ele>
        <time>2020-01-08T14:24:16Z</time>
      </trkpt>
      <trkpt lat="43.61953" lon="6.66357">
        <ele>287</ele>
        <time>2020-01-08T14:24:23Z</time>
      </trkpt>
      <trkpt lat="43.61955" lon="6.66364">
        <ele>287.3</ele>
        <time>2020-01-08T14:24:27Z</time>
      </trkpt>
      <trkpt lat="43.61958" lon="6.66369">
        <ele>287.5</ele>
        <time>2020-01-08T14:24:31Z</time>
      </trkpt>
      <trkpt lat="43.61962" lon="6.66373">
        <ele>287.8</ele>
        <time>2020-01-08T14:24:37Z</time>
      </trkpt>
      <trkpt lat="43.61966" lon="6.66377">
        <ele>288</ele>
        <time>2020-01-08T14:24:42Z</time>
      </trkpt>
      <trkpt lat="43.61971" lon="6.66377">
        <ele>288</ele>
        <time>2020-01-08T14:24:46Z</time>
      </trkpt>
      <trkpt lat="43.61976" lon="6.66376">
        <ele>288</ele>
        <time>2020-01-08T14:24:51Z</time>
      </trkpt>
      <trkpt lat="43.6198" lon="6.66375">
        <ele>288.1</ele>
        <time>2020-01-08T14:24:58Z</time>
      </trkpt>
      <trkpt lat="43.61985" lon="6.66372">
        <ele>288.1</ele>
        <time>2020-01-08T14:25:07Z</time>
      </trkpt>
      <trkpt lat="43.6199" lon="6.66368">
        <ele>287.8</ele>
        <time>2020-01-08T14:25:20Z</time>
      </trkpt>
      <trkpt lat="43.61993" lon="6.66364">
        <ele>287.5</ele>
        <time>2020-01-08T14:25:24Z</time>
      </trkpt>
      <trkpt lat="43.61995" lon="6.6637">
        <ele>286.2</ele>
        <time>2020-01-08T14:25:38Z</time>
      </trkpt>
      <trkpt lat="43.61996" lon="6.66377">
        <ele>285.5</ele>
        <time>2020-01-08T14:25:42Z</time>
      </trkpt>
      <trkpt lat="43.62" lon="6.66381">
        <ele>284.9</ele>
        <time>2020-01-08T14:25:49Z</time>
      </trkpt>
      <trkpt lat="43.62005" lon="6.66379">
        <ele>284.5</ele>
        <time>2020-01-08T14:25:59Z</time>
      </trkpt>
      <trkpt lat="43.6201" lon="6.66376">
        <ele>284.4</ele>
        <time>2020-01-08T14:26:05Z</time>
      </trkpt>
      <trkpt lat="43.62015" lon="6.66373">
        <ele>284.3</ele>
        <time>2020-01-08T14:26:09Z</time>
      </trkpt>
      <trkpt lat="43.6202" lon="6.66373">
        <ele>284.1</ele>
        <time>2020-01-08T14:26:12Z</time>
      </trkpt>
      <trkpt lat="43.62024" lon="6.66374">
        <ele>284</ele>
        <time>2020-01-08T14:26:16Z</time>
      </trkpt>
      <trkpt lat="43.6203" lon="6.66373">
        <ele>284</ele>
        <time>2020-01-08T14:26:20Z</time>
      </trkpt>
      <trkpt lat="43.62035" lon="6.6637">
        <ele>284.6</ele>
        <time>2020-01-08T14:26:25Z</time>
      </trkpt>
      <trkpt lat="43.62039" lon="6.66365">
        <ele>285.1</ele>
        <time>2020-01-08T14:26:30Z</time>
      </trkpt>
      <trkpt lat="43.62043" lon="6.6636">
        <ele>285.7</ele>
        <time>2020-01-08T14:26:34Z</time>
      </trkpt>
      <trkpt lat="43.62046" lon="6.66355">
        <ele>285.9</ele>
        <time>2020-01-08T14:26:38Z</time>
      </trkpt>
      <trkpt lat="43.6205" lon="6.66352">
        <ele>285.7</ele>
        <time>2020-01-08T14:26:43Z</time>
      </trkpt>
      <trkpt lat="43.62055" lon="6.66349">
        <ele>285.6</ele>
        <time>2020-01-08T14:26:47Z</time>
      </trkpt>
      <trkpt lat="43.62059" lon="6.66346">
        <ele>285.5</ele>
        <time>2020-01-08T14:26:50Z</time>
      </trkpt>
      <trkpt lat="43.62064" lon="6.66344">
        <ele>285.8</ele>
        <time>2020-01-08T14:26:53Z</time>
      </trkpt>
      <trkpt lat="43.62069" lon="6.6634">
        <ele>286</ele>
        <time>2020-01-08T14:26:57Z</time>
      </trkpt>
      <trkpt lat="43.62074" lon="6.66337">
        <ele>286.2</ele>
        <time>2020-01-08T14:27:00Z</time>
      </trkpt>
      <trkpt lat="43.62079" lon="6.66333">
        <ele>286.6</ele>
        <time>2020-01-08T14:27:03Z</time>
      </trkpt>
      <trkpt lat="43.62084" lon="6.6633">
        <ele>287.2</ele>
        <time>2020-01-08T14:27:06Z</time>
      </trkpt>
      <trkpt lat="43.62088" lon="6.66327">
        <ele>288</ele>
        <time>2020-01-08T14:27:10Z</time>
      </trkpt>
      <trkpt lat="43.62091" lon="6.66322">
        <ele>289.1</ele>
        <time>2020-01-08T14:27:14Z</time>
      </trkpt>
      <trkpt lat="43.62096" lon="6.66317">
        <ele>290.6</ele>
        <time>2020-01-08T14:27:18Z</time>
      </trkpt>
      <trkpt lat="43.621" lon="6.66312">
        <ele>292</ele>
        <time>2020-01-08T14:27:23Z</time>
      </trkpt>
      <trkpt lat="43.62101" lon="6.66305">
        <ele>293.3</ele>
        <time>2020-01-08T14:27:28Z</time>
      </trkpt>
      <trkpt lat="43.62104" lon="6.66299">
        <ele>294.3</ele>
        <time>2020-01-08T14:27:33Z</time>
      </trkpt>
      <trkpt lat="43.62108" lon="6.66296">
        <ele>295.1</ele>
        <time>2020-01-08T14:27:38Z</time>
      </trkpt>
      <trkpt lat="43.62112" lon="6.66292">
        <ele>295.8</ele>
        <time>2020-01-08T14:27:43Z</time>
      </trkpt>
      <trkpt lat="43.62117" lon="6.6629">
        <ele>296.4</ele>
        <time>2020-01-08T14:27:48Z</time>
      </trkpt>
      <trkpt lat="43.62122" lon="6.66289">
        <ele>296.8</ele>
        <time>2020-01-08T14:27:52Z</time>
      </trkpt>
      <trkpt lat="43.62128" lon="6.66289">
        <ele>297.1</ele>
        <time>2020-01-08T14:27:55Z</time>
      </trkpt>
      <trkpt lat="43.62135" lon="6.66289">
        <ele>297.4</ele>
        <time>2020-01-08T14:27:58Z</time>
      </trkpt>
      <trkpt lat="43.6214" lon="6.6629">
        <ele>297.6</ele>
        <time>2020-01-08T14:28:01Z</time>
      </trkpt>
      <trkpt lat="43.62145" lon="6.66291">
        <ele>297.8</ele>
        <time>2020-01-08T14:28:04Z</time>
      </trkpt>
      <trkpt lat="43.62151" lon="6.66291">
        <ele>298.1</ele>
        <time>2020-01-08T14:28:07Z</time>
      </trkpt>
      <trkpt lat="43.62158" lon="6.66292">
        <ele>298.3</ele>
        <time>2020-01-08T14:28:10Z</time>
      </trkpt>
      <trkpt lat="43.62162" lon="6.66293">
        <ele>298.6</ele>
        <time>2020-01-08T14:28:13Z</time>
      </trkpt>
      <trkpt lat="43.62167" lon="6.66291">
        <ele>299</ele>
        <time>2020-01-08T14:28:16Z</time>
      </trkpt>
      <trkpt lat="43.62172" lon="6.6629">
        <ele>299.7</ele>
        <time>2020-01-08T14:28:21Z</time>
      </trkpt>
      <trkpt lat="43.62178" lon="6.66291">
        <ele>300.3</ele>
        <time>2020-01-08T14:28:26Z</time>
      </trkpt>
      <trkpt lat="43.62184" lon="6.66292">
        <ele>300.9</ele>
        <time>2020-01-08T14:28:30Z</time>
      </trkpt>
      <trkpt lat="43.62189" lon="6.66292">
        <ele>301.6</ele>
        <time>2020-01-08T14:28:36Z</time>
      </trkpt>
      <trkpt lat="43.62194" lon="6.66292">
        <ele>303.1</ele>
        <time>2020-01-08T14:28:45Z</time>
      </trkpt>
      <trkpt lat="43.62199" lon="6.66289">
        <ele>303.8</ele>
        <time>2020-01-08T14:28:50Z</time>
      </trkpt>
      <trkpt lat="43.62204" lon="6.66287">
        <ele>304.3</ele>
        <time>2020-01-08T14:28:54Z</time>
      </trkpt>
      <trkpt lat="43.62209" lon="6.66284">
        <ele>304.6</ele>
        <time>2020-01-08T14:28:57Z</time>
      </trkpt>
      <trkpt lat="43.62213" lon="6.66283">
        <ele>304.8</ele>
        <time>2020-01-08T14:29:00Z</time>
      </trkpt>
      <trkpt lat="43.62219" lon="6.66284">
        <ele>305.1</ele>
        <time>2020-01-08T14:29:03Z</time>
      </trkpt>
      <trkpt lat="43.62224" lon="6.66284">
        <ele>305.3</ele>
        <time>2020-01-08T14:29:07Z</time>
      </trkpt>
      <trkpt lat="43.6223" lon="6.66284">
        <ele>305.5</ele>
        <time>2020-01-08T14:29:12Z</time>
      </trkpt>
      <trkpt lat="43.62235" lon="6.66285">
        <ele>305.8</ele>
        <time>2020-01-08T14:29:17Z</time>
      </trkpt>
      <trkpt lat="43.6224" lon="6.66286">
        <ele>306.2</ele>
        <time>2020-01-08T14:29:22Z</time>
      </trkpt>
      <trkpt lat="43.62245" lon="6.66285">
        <ele>306.9</ele>
        <time>2020-01-08T14:29:27Z</time>
      </trkpt>
      <trkpt lat="43.6225" lon="6.66283">
        <ele>308</ele>
        <time>2020-01-08T14:29:34Z</time>
      </trkpt>
      <trkpt lat="43.62255" lon="6.66281">
        <ele>308.7</ele>
        <time>2020-01-08T14:29:39Z</time>
      </trkpt>
      <trkpt lat="43.62259" lon="6.66281">
        <ele>309.2</ele>
        <time>2020-01-08T14:29:43Z</time>
      </trkpt>
      <trkpt lat="43.62264" lon="6.66283">
        <ele>309.6</ele>
        <time>2020-01-08T14:29:47Z</time>
      </trkpt>
      <trkpt lat="43.62268" lon="6.66284">
        <ele>310</ele>
        <time>2020-01-08T14:29:51Z</time>
      </trkpt>
      <trkpt lat="43.62273" lon="6.66284">
        <ele>310</ele>
        <time>2020-01-08T14:29:54Z</time>
      </trkpt>
      <trkpt lat="43.62277" lon="6.66284">
        <ele>310.1</ele>
        <time>2020-01-08T14:29:57Z</time>
      </trkpt>
      <trkpt lat="43.62282" lon="6.66281">
        <ele>310.1</ele>
        <time>2020-01-08T14:30:01Z</time>
      </trkpt>
      <trkpt lat="43.62288" lon="6.66279">
        <ele>310</ele>
        <time>2020-01-08T14:30:04Z</time>
      </trkpt>
      <trkpt lat="43.62293" lon="6.66275">
        <ele>310.1</ele>
        <time>2020-01-08T14:30:07Z</time>
      </trkpt>
      <trkpt lat="43.62297" lon="6.66269">
        <ele>310.2</ele>
        <time>2020-01-08T14:30:11Z</time>
      </trkpt>
      <trkpt lat="43.62301" lon="6.66265">
        <ele>310.4</ele>
        <time>2020-01-08T14:30:14Z</time>
      </trkpt>
      <trkpt lat="43.62305" lon="6.66262">
        <ele>310.6</ele>
        <time>2020-01-08T14:30:17Z</time>
      </trkpt>
      <trkpt lat="43.6231" lon="6.66258">
        <ele>310.6</ele>
        <time>2020-01-08T14:30:20Z</time>
      </trkpt>
      <trkpt lat="43.62315" lon="6.66255">
        <ele>310.3</ele>
        <time>2020-01-08T14:30:24Z</time>
      </trkpt>
      <trkpt lat="43.6232" lon="6.66252">
        <ele>310.1</ele>
        <time>2020-01-08T14:30:28Z</time>
      </trkpt>
      <trkpt lat="43.62324" lon="6.66248">
        <ele>309.2</ele>
        <time>2020-01-08T14:30:35Z</time>
      </trkpt>
      <trkpt lat="43.62329" lon="6.66246">
        <ele>308.8</ele>
        <time>2020-01-08T14:30:38Z</time>
      </trkpt>
      <trkpt lat="43.62334" lon="6.66244">
        <ele>308.1</ele>
        <time>2020-01-08T14:30:41Z</time>
      </trkpt>
      <trkpt lat="43.62338" lon="6.66241">
        <ele>307.4</ele>
        <time>2020-01-08T14:30:45Z</time>
      </trkpt>
      <trkpt lat="43.62343" lon="6.66237">
        <ele>307.1</ele>
        <time>2020-01-08T14:30:50Z</time>
      </trkpt>
      <trkpt lat="43.62348" lon="6.66233">
        <ele>307.1</ele>
        <time>2020-01-08T14:30:54Z</time>
      </trkpt>
      <trkpt lat="43.62354" lon="6.6623">
        <ele>307.1</ele>
        <time>2020-01-08T14:30:57Z</time>
      </trkpt>
      <trkpt lat="43.62357" lon="6.66226">
        <ele>307.2</ele>
        <time>2020-01-08T14:31:01Z</time>
      </trkpt>
      <trkpt lat="43.62358" lon="6.66219">
        <ele>307.5</ele>
        <time>2020-01-08T14:31:09Z</time>
      </trkpt>
      <trkpt lat="43.62364" lon="6.66216">
        <ele>308.1</ele>
        <time>2020-01-08T14:31:13Z</time>
      </trkpt>
      <trkpt lat="43.62369" lon="6.66214">
        <ele>308.7</ele>
        <time>2020-01-08T14:31:16Z</time>
      </trkpt>
      <trkpt lat="43.62375" lon="6.66212">
        <ele>309.2</ele>
        <time>2020-01-08T14:31:19Z</time>
      </trkpt>
      <trkpt lat="43.6238" lon="6.66209">
        <ele>309.1</ele>
        <time>2020-01-08T14:31:22Z</time>
      </trkpt>
      <trkpt lat="43.62384" lon="6.66205">
        <ele>308</ele>
        <time>2020-01-08T14:31:26Z</time>
      </trkpt>
      <trkpt lat="43.62385" lon="6.66198">
        <ele>305.1</ele>
        <time>2020-01-08T14:31:31Z</time>
      </trkpt>
      <trkpt lat="43.6239" lon="6.66193">
        <ele>303</ele>
        <time>2020-01-08T14:31:35Z</time>
      </trkpt>
      <trkpt lat="43.62395" lon="6.66188">
        <ele>301.1</ele>
        <time>2020-01-08T14:31:39Z</time>
      </trkpt>
      <trkpt lat="43.62399" lon="6.66183">
        <ele>299.6</ele>
        <time>2020-01-08T14:31:43Z</time>
      </trkpt>
      <trkpt lat="43.62402" lon="6.66179">
        <ele>298.1</ele>
        <time>2020-01-08T14:31:47Z</time>
      </trkpt>
      <trkpt lat="43.62406" lon="6.66174">
        <ele>294.4</ele>
        <time>2020-01-08T14:31:57Z</time>
      </trkpt>
      <trkpt lat="43.62412" lon="6.66173">
        <ele>293.2</ele>
        <time>2020-01-08T14:32:02Z</time>
      </trkpt>
      <trkpt lat="43.62417" lon="6.66172">
        <ele>292.5</ele>
        <time>2020-01-08T14:32:06Z</time>
      </trkpt>
      <trkpt lat="43.62421" lon="6.66171">
        <ele>292</ele>
        <time>2020-01-08T14:32:09Z</time>
      </trkpt>
      <trkpt lat="43.62426" lon="6.6617">
        <ele>291.7</ele>
        <time>2020-01-08T14:32:12Z</time>
      </trkpt>
      <trkpt lat="43.62431" lon="6.66168">
        <ele>291.7</ele>
        <time>2020-01-08T14:32:17Z</time>
      </trkpt>
      <trkpt lat="43.62434" lon="6.66163">
        <ele>292.4</ele>
        <time>2020-01-08T14:32:23Z</time>
      </trkpt>
      <trkpt lat="43.62438" lon="6.66161">
        <ele>294</ele>
        <time>2020-01-08T14:32:28Z</time>
      </trkpt>
      <trkpt lat="43.62443" lon="6.66159">
        <ele>296.2</ele>
        <time>2020-01-08T14:32:35Z</time>
      </trkpt>
      <trkpt lat="43.62448" lon="6.66157">
        <ele>296.9</ele>
        <time>2020-01-08T14:32:39Z</time>
      </trkpt>
      <trkpt lat="43.62452" lon="6.66154">
        <ele>297.6</ele>
        <time>2020-01-08T14:32:43Z</time>
      </trkpt>
      <trkpt lat="43.62456" lon="6.66149">
        <ele>298.6</ele>
        <time>2020-01-08T14:32:49Z</time>
      </trkpt>
      <trkpt lat="43.6246" lon="6.66146">
        <ele>299</ele>
        <time>2020-01-08T14:32:52Z</time>
      </trkpt>
      <trkpt lat="43.62465" lon="6.66143">
        <ele>300.1</ele>
        <time>2020-01-08T14:32:58Z</time>
      </trkpt>
      <trkpt lat="43.6247" lon="6.6614">
        <ele>301.2</ele>
        <time>2020-01-08T14:33:03Z</time>
      </trkpt>
      <trkpt lat="43.62475" lon="6.66138">
        <ele>302.8</ele>
        <time>2020-01-08T14:33:10Z</time>
      </trkpt>
      <trkpt lat="43.6248" lon="6.66137">
        <ele>304.3</ele>
        <time>2020-01-08T14:33:16Z</time>
      </trkpt>
      <trkpt lat="43.62484" lon="6.66141">
        <ele>305.8</ele>
        <time>2020-01-08T14:33:21Z</time>
      </trkpt>
      <trkpt lat="43.62489" lon="6.66144">
        <ele>307.6</ele>
        <time>2020-01-08T14:33:28Z</time>
      </trkpt>
      <trkpt lat="43.62495" lon="6.66143">
        <ele>308.1</ele>
        <time>2020-01-08T14:33:31Z</time>
      </trkpt>
      <trkpt lat="43.62501" lon="6.6614">
        <ele>308.7</ele>
        <time>2020-01-08T14:33:34Z</time>
      </trkpt>
      <trkpt lat="43.62504" lon="6.66136">
        <ele>309.5</ele>
        <time>2020-01-08T14:33:37Z</time>
      </trkpt>
      <trkpt lat="43.62507" lon="6.6613">
        <ele>310.4</ele>
        <time>2020-01-08T14:33:40Z</time>
      </trkpt>
      <trkpt lat="43.6251" lon="6.66124">
        <ele>311.2</ele>
        <time>2020-01-08T14:33:43Z</time>
      </trkpt>
      <trkpt lat="43.62512" lon="6.66118">
        <ele>312.1</ele>
        <time>2020-01-08T14:33:46Z</time>
      </trkpt>
      <trkpt lat="43.62515" lon="6.66112">
        <ele>312.8</ele>
        <time>2020-01-08T14:33:49Z</time>
      </trkpt>
      <trkpt lat="43.62517" lon="6.66106">
        <ele>313.5</ele>
        <time>2020-01-08T14:33:52Z</time>
      </trkpt>
      <trkpt lat="43.62517" lon="6.66099">
        <ele>314</ele>
        <time>2020-01-08T14:33:55Z</time>
      </trkpt>
      <trkpt lat="43.62518" lon="6.66093">
        <ele>314.6</ele>
        <time>2020-01-08T14:33:58Z</time>
      </trkpt>
      <trkpt lat="43.62517" lon="6.66087">
        <ele>315.1</ele>
        <time>2020-01-08T14:34:01Z</time>
      </trkpt>
      <trkpt lat="43.62517" lon="6.66079">
        <ele>315.7</ele>
        <time>2020-01-08T14:34:05Z</time>
      </trkpt>
      <trkpt lat="43.62517" lon="6.66072">
        <ele>316.3</ele>
        <time>2020-01-08T14:34:09Z</time>
      </trkpt>
      <trkpt lat="43.62518" lon="6.66064">
        <ele>316.8</ele>
        <time>2020-01-08T14:34:14Z</time>
      </trkpt>
      <trkpt lat="43.62518" lon="6.66058">
        <ele>317</ele>
        <time>2020-01-08T14:34:18Z</time>
      </trkpt>
      <trkpt lat="43.62518" lon="6.6605">
        <ele>317.1</ele>
        <time>2020-01-08T14:34:22Z</time>
      </trkpt>
      <trkpt lat="43.62517" lon="6.66043">
        <ele>317.2</ele>
        <time>2020-01-08T14:34:26Z</time>
      </trkpt>
      <trkpt lat="43.62515" lon="6.66036">
        <ele>317.3</ele>
        <time>2020-01-08T14:34:30Z</time>
      </trkpt>
      <trkpt lat="43.62514" lon="6.66029">
        <ele>317.7</ele>
        <time>2020-01-08T14:34:35Z</time>
      </trkpt>
      <trkpt lat="43.62514" lon="6.66022">
        <ele>318.9</ele>
        <time>2020-01-08T14:34:43Z</time>
      </trkpt>
      <trkpt lat="43.62515" lon="6.66016">
        <ele>319.6</ele>
        <time>2020-01-08T14:34:47Z</time>
      </trkpt>
      <trkpt lat="43.62516" lon="6.66009">
        <ele>321</ele>
        <time>2020-01-08T14:34:52Z</time>
      </trkpt>
      <trkpt lat="43.62515" lon="6.66002">
        <ele>322.2</ele>
        <time>2020-01-08T14:34:57Z</time>
      </trkpt>
      <trkpt lat="43.62514" lon="6.65996">
        <ele>322.8</ele>
        <time>2020-01-08T14:35:02Z</time>
      </trkpt>
      <trkpt lat="43.62518" lon="6.65992">
        <ele>322.9</ele>
        <time>2020-01-08T14:35:09Z</time>
      </trkpt>
      <trkpt lat="43.62523" lon="6.65989">
        <ele>322.5</ele>
        <time>2020-01-08T14:35:12Z</time>
      </trkpt>
      <trkpt lat="43.62529" lon="6.65986">
        <ele>321.9</ele>
        <time>2020-01-08T14:35:15Z</time>
      </trkpt>
      <trkpt lat="43.62533" lon="6.65983">
        <ele>320.5</ele>
        <time>2020-01-08T14:35:20Z</time>
      </trkpt>
      <trkpt lat="43.62538" lon="6.6598">
        <ele>319.1</ele>
        <time>2020-01-08T14:35:25Z</time>
      </trkpt>
      <trkpt lat="43.62543" lon="6.65978">
        <ele>317.5</ele>
        <time>2020-01-08T14:35:32Z</time>
      </trkpt>
      <trkpt lat="43.62547" lon="6.65979">
        <ele>316.5</ele>
        <time>2020-01-08T14:35:38Z</time>
      </trkpt>
      <trkpt lat="43.62553" lon="6.65979">
        <ele>316.3</ele>
        <time>2020-01-08T14:35:41Z</time>
      </trkpt>
      <trkpt lat="43.62559" lon="6.65979">
        <ele>316.3</ele>
        <time>2020-01-08T14:35:44Z</time>
      </trkpt>
      <trkpt lat="43.62565" lon="6.65979">
        <ele>316.2</ele>
        <time>2020-01-08T14:35:47Z</time>
      </trkpt>
      <trkpt lat="43.6257" lon="6.65979">
        <ele>316</ele>
        <time>2020-01-08T14:35:50Z</time>
      </trkpt>
      <trkpt lat="43.62575" lon="6.65979">
        <ele>315.9</ele>
        <time>2020-01-08T14:35:54Z</time>
      </trkpt>
      <trkpt lat="43.6258" lon="6.65979">
        <ele>315.7</ele>
        <time>2020-01-08T14:35:58Z</time>
      </trkpt>
      <trkpt lat="43.62585" lon="6.65978">
        <ele>315.5</ele>
        <time>2020-01-08T14:36:01Z</time>
      </trkpt>
      <trkpt lat="43.62591" lon="6.65977">
        <ele>315.2</ele>
        <time>2020-01-08T14:36:05Z</time>
      </trkpt>
      <trkpt lat="43.62596" lon="6.65976">
        <ele>314.9</ele>
        <time>2020-01-08T14:36:08Z</time>
      </trkpt>
      <trkpt lat="43.62602" lon="6.65973">
        <ele>314.7</ele>
        <time>2020-01-08T14:36:11Z</time>
      </trkpt>
      <trkpt lat="43.62607" lon="6.65971">
        <ele>314.5</ele>
        <time>2020-01-08T14:36:15Z</time>
      </trkpt>
      <trkpt lat="43.62612" lon="6.65968">
        <ele>314.3</ele>
        <time>2020-01-08T14:36:20Z</time>
      </trkpt>
      <trkpt lat="43.62616" lon="6.65966">
        <ele>314.3</ele>
        <time>2020-01-08T14:36:24Z</time>
      </trkpt>
      <trkpt lat="43.62622" lon="6.65964">
        <ele>314.5</ele>
        <time>2020-01-08T14:36:27Z</time>
      </trkpt>
      <trkpt lat="43.62628" lon="6.65963">
        <ele>314.7</ele>
        <time>2020-01-08T14:36:30Z</time>
      </trkpt>
      <trkpt lat="43.62634" lon="6.65961">
        <ele>315</ele>
        <time>2020-01-08T14:36:33Z</time>
      </trkpt>
      <trkpt lat="43.62638" lon="6.65956">
        <ele>315.2</ele>
        <time>2020-01-08T14:36:37Z</time>
      </trkpt>
      <trkpt lat="43.62642" lon="6.65951">
        <ele>315.4</ele>
        <time>2020-01-08T14:36:41Z</time>
      </trkpt>
      <trkpt lat="43.62646" lon="6.65945">
        <ele>316</ele>
        <time>2020-01-08T14:36:46Z</time>
      </trkpt>
      <trkpt lat="43.62648" lon="6.65938">
        <ele>316.3</ele>
        <time>2020-01-08T14:36:50Z</time>
      </trkpt>
      <trkpt lat="43.6265" lon="6.65931">
        <ele>316.8</ele>
        <time>2020-01-08T14:36:54Z</time>
      </trkpt>
      <trkpt lat="43.62652" lon="6.65924">
        <ele>317.8</ele>
        <time>2020-01-08T14:36:59Z</time>
      </trkpt>
      <trkpt lat="43.62653" lon="6.65917">
        <ele>318.8</ele>
        <time>2020-01-08T14:37:03Z</time>
      </trkpt>
      <trkpt lat="43.62655" lon="6.6591">
        <ele>319.7</ele>
        <time>2020-01-08T14:37:07Z</time>
      </trkpt>
      <trkpt lat="43.62656" lon="6.65904">
        <ele>320.6</ele>
        <time>2020-01-08T14:37:11Z</time>
      </trkpt>
      <trkpt lat="43.62657" lon="6.65896">
        <ele>321.5</ele>
        <time>2020-01-08T14:37:15Z</time>
      </trkpt>
      <trkpt lat="43.62656" lon="6.65889">
        <ele>322.2</ele>
        <time>2020-01-08T14:37:18Z</time>
      </trkpt>
      <trkpt lat="43.62654" lon="6.65884">
        <ele>322.2</ele>
        <time>2020-01-08T14:37:21Z</time>
      </trkpt>
      <trkpt lat="43.6265" lon="6.65879">
        <ele>322.1</ele>
        <time>2020-01-08T14:37:25Z</time>
      </trkpt>
      <trkpt lat="43.62651" lon="6.65872">
        <ele>322.3</ele>
        <time>2020-01-08T14:37:31Z</time>
      </trkpt>
      <trkpt lat="43.62651" lon="6.65865">
        <ele>322.9</ele>
        <time>2020-01-08T14:37:37Z</time>
      </trkpt>
      <trkpt lat="43.62652" lon="6.65859">
        <ele>323.6</ele>
        <time>2020-01-08T14:37:42Z</time>
      </trkpt>
      <trkpt lat="43.62654" lon="6.65852">
        <ele>324.5</ele>
        <time>2020-01-08T14:37:46Z</time>
      </trkpt>
      <trkpt lat="43.62657" lon="6.65845">
        <ele>325.4</ele>
        <time>2020-01-08T14:37:50Z</time>
      </trkpt>
      <trkpt lat="43.62659" lon="6.65838">
        <ele>326.4</ele>
        <time>2020-01-08T14:37:54Z</time>
      </trkpt>
      <trkpt lat="43.62662" lon="6.65831">
        <ele>327.3</ele>
        <time>2020-01-08T14:37:58Z</time>
      </trkpt>
      <trkpt lat="43.62663" lon="6.65825">
        <ele>327.9</ele>
        <time>2020-01-08T14:38:01Z</time>
      </trkpt>
      <trkpt lat="43.62665" lon="6.65819">
        <ele>328.4</ele>
        <time>2020-01-08T14:38:04Z</time>
      </trkpt>
      <trkpt lat="43.62667" lon="6.65813">
        <ele>328.9</ele>
        <time>2020-01-08T14:38:07Z</time>
      </trkpt>
      <trkpt lat="43.62668" lon="6.65807">
        <ele>329.3</ele>
        <time>2020-01-08T14:38:10Z</time>
      </trkpt>
      <trkpt lat="43.6267" lon="6.65801">
        <ele>329.7</ele>
        <time>2020-01-08T14:38:13Z</time>
      </trkpt>
      <trkpt lat="43.62673" lon="6.65795">
        <ele>330.1</ele>
        <time>2020-01-08T14:38:17Z</time>
      </trkpt>
      <trkpt lat="43.62676" lon="6.6579">
        <ele>330.4</ele>
        <time>2020-01-08T14:38:21Z</time>
      </trkpt>
      <trkpt lat="43.62679" lon="6.65786">
        <ele>330.6</ele>
        <time>2020-01-08T14:38:25Z</time>
      </trkpt>
      <trkpt lat="43.62683" lon="6.65783">
        <ele>330.8</ele>
        <time>2020-01-08T14:38:28Z</time>
      </trkpt>
      <trkpt lat="43.62687" lon="6.65778">
        <ele>331.1</ele>
        <time>2020-01-08T14:38:32Z</time>
      </trkpt>
      <trkpt lat="43.6269" lon="6.65772">
        <ele>331.3</ele>
        <time>2020-01-08T14:38:37Z</time>
      </trkpt>
      <trkpt lat="43.62693" lon="6.65767">
        <ele>331.6</ele>
        <time>2020-01-08T14:38:42Z</time>
      </trkpt>
      <trkpt lat="43.62697" lon="6.65763">
        <ele>332</ele>
        <time>2020-01-08T14:38:47Z</time>
      </trkpt>
      <trkpt lat="43.627" lon="6.65758">
        <ele>332.4</ele>
        <time>2020-01-08T14:38:51Z</time>
      </trkpt>
      <trkpt lat="43.62703" lon="6.65753">
        <ele>332.8</ele>
        <time>2020-01-08T14:38:55Z</time>
      </trkpt>
      <trkpt lat="43.62705" lon="6.65748">
        <ele>333.3</ele>
        <time>2020-01-08T14:39:00Z</time>
      </trkpt>
      <trkpt lat="43.62707" lon="6.65742">
        <ele>333.2</ele>
        <time>2020-01-08T14:39:06Z</time>
      </trkpt>
      <trkpt lat="43.6271" lon="6.65738">
        <ele>331.8</ele>
        <time>2020-01-08T14:39:14Z</time>
      </trkpt>
      <trkpt lat="43.62716" lon="6.65737">
        <ele>330.9</ele>
        <time>2020-01-08T14:39:18Z</time>
      </trkpt>
      <trkpt lat="43.6272" lon="6.65736">
        <ele>330.2</ele>
        <time>2020-01-08T14:39:23Z</time>
      </trkpt>
      <trkpt lat="43.62725" lon="6.65733">
        <ele>329.8</ele>
        <time>2020-01-08T14:39:28Z</time>
      </trkpt>
      <trkpt lat="43.6273" lon="6.65731">
        <ele>329.6</ele>
        <time>2020-01-08T14:39:32Z</time>
      </trkpt>
      <trkpt lat="43.62734" lon="6.65727">
        <ele>329.6</ele>
        <time>2020-01-08T14:39:36Z</time>
      </trkpt>
      <trkpt lat="43.62739" lon="6.65724">
        <ele>329.6</ele>
        <time>2020-01-08T14:39:40Z</time>
      </trkpt>
      <trkpt lat="43.62743" lon="6.6572">
        <ele>329.7</ele>
        <time>2020-01-08T14:39:44Z</time>
      </trkpt>
      <trkpt lat="43.62748" lon="6.65714">
        <ele>330</ele>
        <time>2020-01-08T14:39:48Z</time>
      </trkpt>
      <trkpt lat="43.62751" lon="6.65708">
        <ele>330.7</ele>
        <time>2020-01-08T14:39:52Z</time>
      </trkpt>
      <trkpt lat="43.62754" lon="6.65702">
        <ele>331.4</ele>
        <time>2020-01-08T14:39:55Z</time>
      </trkpt>
      <trkpt lat="43.62755" lon="6.65696">
        <ele>332.4</ele>
        <time>2020-01-08T14:40:02Z</time>
      </trkpt>
      <trkpt lat="43.6276" lon="6.65693">
        <ele>332.5</ele>
        <time>2020-01-08T14:40:16Z</time>
      </trkpt>
      <trkpt lat="43.62765" lon="6.65694">
        <ele>332.5</ele>
        <time>2020-01-08T14:40:21Z</time>
      </trkpt>
      <trkpt lat="43.6277" lon="6.65695">
        <ele>332.5</ele>
        <time>2020-01-08T14:40:25Z</time>
      </trkpt>
      <trkpt lat="43.62774" lon="6.65697">
        <ele>332.7</ele>
        <time>2020-01-08T14:40:30Z</time>
      </trkpt>
      <trkpt lat="43.62779" lon="6.657">
        <ele>332.9</ele>
        <time>2020-01-08T14:40:34Z</time>
      </trkpt>
      <trkpt lat="43.62783" lon="6.65704">
        <ele>333</ele>
        <time>2020-01-08T14:40:38Z</time>
      </trkpt>
      <trkpt lat="43.62786" lon="6.65709">
        <ele>333.1</ele>
        <time>2020-01-08T14:40:41Z</time>
      </trkpt>
      <trkpt lat="43.62789" lon="6.65715">
        <ele>333.2</ele>
        <time>2020-01-08T14:40:45Z</time>
      </trkpt>
      <trkpt lat="43.62792" lon="6.6572">
        <ele>333.2</ele>
        <time>2020-01-08T14:40:49Z</time>
      </trkpt>
      <trkpt lat="43.62796" lon="6.65726">
        <ele>332.9</ele>
        <time>2020-01-08T14:40:52Z</time>
      </trkpt>
      <trkpt lat="43.628" lon="6.65731">
        <ele>332.6</ele>
        <time>2020-01-08T14:40:55Z</time>
      </trkpt>
      <trkpt lat="43.62804" lon="6.65736">
        <ele>332.3</ele>
        <time>2020-01-08T14:40:58Z</time>
      </trkpt>
      <trkpt lat="43.62808" lon="6.6574">
        <ele>331.7</ele>
        <time>2020-01-08T14:41:02Z</time>
      </trkpt>
      <trkpt lat="43.62811" lon="6.65744">
        <ele>331.2</ele>
        <time>2020-01-08T14:41:06Z</time>
      </trkpt>
      <trkpt lat="43.62816" lon="6.65747">
        <ele>330.8</ele>
        <time>2020-01-08T14:41:10Z</time>
      </trkpt>
      <trkpt lat="43.6282" lon="6.65749">
        <ele>330.4</ele>
        <time>2020-01-08T14:41:14Z</time>
      </trkpt>
      <trkpt lat="43.62826" lon="6.6575">
        <ele>330.1</ele>
        <time>2020-01-08T14:41:18Z</time>
      </trkpt>
      <trkpt lat="43.6283" lon="6.65751">
        <ele>329.6</ele>
        <time>2020-01-08T14:41:23Z</time>
      </trkpt>
      <trkpt lat="43.62835" lon="6.65752">
        <ele>329.2</ele>
        <time>2020-01-08T14:41:28Z</time>
      </trkpt>
      <trkpt lat="43.6284" lon="6.65752">
        <ele>328.9</ele>
        <time>2020-01-08T14:41:35Z</time>
      </trkpt>
      <trkpt lat="43.62845" lon="6.65754">
        <ele>328.8</ele>
        <time>2020-01-08T14:41:39Z</time>
      </trkpt>
      <trkpt lat="43.6285" lon="6.65754">
        <ele>328.7</ele>
        <time>2020-01-08T14:41:42Z</time>
      </trkpt>
      <trkpt lat="43.62854" lon="6.65753">
        <ele>328.7</ele>
        <time>2020-01-08T14:41:45Z</time>
      </trkpt>
      <trkpt lat="43.62859" lon="6.65754">
        <ele>328.9</ele>
        <time>2020-01-08T14:41:49Z</time>
      </trkpt>
      <trkpt lat="43.62864" lon="6.65754">
        <ele>329.1</ele>
        <time>2020-01-08T14:41:52Z</time>
      </trkpt>
      <trkpt lat="43.62869" lon="6.65754">
        <ele>329.4</ele>
        <time>2020-01-08T14:41:56Z</time>
      </trkpt>
      <trkpt lat="43.62875" lon="6.65753">
        <ele>329.5</ele>
        <time>2020-01-08T14:42:00Z</time>
      </trkpt>
      <trkpt lat="43.62879" lon="6.65749">
        <ele>329.6</ele>
        <time>2020-01-08T14:42:04Z</time>
      </trkpt>
      <trkpt lat="43.62884" lon="6.65747">
        <ele>329.7</ele>
        <time>2020-01-08T14:42:09Z</time>
      </trkpt>
      <trkpt lat="43.6289" lon="6.65745">
        <ele>329.8</ele>
        <time>2020-01-08T14:42:13Z</time>
      </trkpt>
      <trkpt lat="43.62895" lon="6.65744">
        <ele>329.9</ele>
        <time>2020-01-08T14:42:17Z</time>
      </trkpt>
      <trkpt lat="43.629" lon="6.65742">
        <ele>330</ele>
        <time>2020-01-08T14:42:20Z</time>
      </trkpt>
      <trkpt lat="43.62904" lon="6.65741">
        <ele>330.1</ele>
        <time>2020-01-08T14:42:23Z</time>
      </trkpt>
      <trkpt lat="43.62909" lon="6.65739">
        <ele>330.3</ele>
        <time>2020-01-08T14:42:27Z</time>
      </trkpt>
      <trkpt lat="43.62914" lon="6.65738">
        <ele>330.5</ele>
        <time>2020-01-08T14:42:32Z</time>
      </trkpt>
      <trkpt lat="43.62919" lon="6.65737">
        <ele>330.6</ele>
        <time>2020-01-08T14:42:35Z</time>
      </trkpt>
      <trkpt lat="43.62923" lon="6.65736">
        <ele>330.8</ele>
        <time>2020-01-08T14:42:38Z</time>
      </trkpt>
      <trkpt lat="43.62928" lon="6.65733">
        <ele>330.9</ele>
        <time>2020-01-08T14:42:42Z</time>
      </trkpt>
      <trkpt lat="43.62934" lon="6.6573">
        <ele>331.2</ele>
        <time>2020-01-08T14:42:46Z</time>
      </trkpt>
      <trkpt lat="43.62939" lon="6.65727">
        <ele>331.4</ele>
        <time>2020-01-08T14:42:50Z</time>
      </trkpt>
      <trkpt lat="43.62946" lon="6.65724">
        <ele>331.6</ele>
        <time>2020-01-08T14:42:53Z</time>
      </trkpt>
      <trkpt lat="43.62951" lon="6.65721">
        <ele>331.7</ele>
        <time>2020-01-08T14:42:56Z</time>
      </trkpt>
      <trkpt lat="43.62955" lon="6.65718">
        <ele>331.7</ele>
        <time>2020-01-08T14:43:00Z</time>
      </trkpt>
      <trkpt lat="43.6296" lon="6.65715">
        <ele>331.9</ele>
        <time>2020-01-08T14:43:04Z</time>
      </trkpt>
      <trkpt lat="43.62966" lon="6.65713">
        <ele>332.3</ele>
        <time>2020-01-08T14:43:09Z</time>
      </trkpt>
      <trkpt lat="43.6297" lon="6.65711">
        <ele>332.6</ele>
        <time>2020-01-08T14:43:13Z</time>
      </trkpt>
      <trkpt lat="43.62976" lon="6.6571">
        <ele>332.8</ele>
        <time>2020-01-08T14:43:18Z</time>
      </trkpt>
      <trkpt lat="43.62981" lon="6.65709">
        <ele>332.9</ele>
        <time>2020-01-08T14:43:22Z</time>
      </trkpt>
      <trkpt lat="43.62987" lon="6.65709">
        <ele>333.2</ele>
        <time>2020-01-08T14:43:26Z</time>
      </trkpt>
      <trkpt lat="43.62992" lon="6.65709">
        <ele>333.5</ele>
        <time>2020-01-08T14:43:30Z</time>
      </trkpt>
      <trkpt lat="43.62997" lon="6.65707">
        <ele>333.8</ele>
        <time>2020-01-08T14:43:34Z</time>
      </trkpt>
      <trkpt lat="43.63003" lon="6.65705">
        <ele>334</ele>
        <time>2020-01-08T14:43:38Z</time>
      </trkpt>
      <trkpt lat="43.63008" lon="6.65703">
        <ele>334.3</ele>
        <time>2020-01-08T14:43:42Z</time>
      </trkpt>
      <trkpt lat="43.63013" lon="6.657">
        <ele>334.5</ele>
        <time>2020-01-08T14:43:46Z</time>
      </trkpt>
      <trkpt lat="43.63017" lon="6.65697">
        <ele>334.8</ele>
        <time>2020-01-08T14:43:50Z</time>
      </trkpt>
      <trkpt lat="43.63021" lon="6.65691">
        <ele>335.1</ele>
        <time>2020-01-08T14:43:54Z</time>
      </trkpt>
      <trkpt lat="43.63025" lon="6.65688">
        <ele>335.4</ele>
        <time>2020-01-08T14:43:57Z</time>
      </trkpt>
      <trkpt lat="43.63029" lon="6.65684">
        <ele>335.9</ele>
        <time>2020-01-08T14:44:00Z</time>
      </trkpt>
      <trkpt lat="43.63033" lon="6.6568">
        <ele>336.4</ele>
        <time>2020-01-08T14:44:03Z</time>
      </trkpt>
      <trkpt lat="43.63037" lon="6.65676">
        <ele>336.9</ele>
        <time>2020-01-08T14:44:07Z</time>
      </trkpt>
      <trkpt lat="43.63041" lon="6.65672">
        <ele>337.4</ele>
        <time>2020-01-08T14:44:11Z</time>
      </trkpt>
      <trkpt lat="43.63045" lon="6.65667">
        <ele>337.9</ele>
        <time>2020-01-08T14:44:15Z</time>
      </trkpt>
      <trkpt lat="43.63049" lon="6.65662">
        <ele>338.3</ele>
        <time>2020-01-08T14:44:18Z</time>
      </trkpt>
      <trkpt lat="43.63052" lon="6.65656">
        <ele>338.3</ele>
        <time>2020-01-08T14:44:21Z</time>
      </trkpt>
      <trkpt lat="43.63056" lon="6.65651">
        <ele>338.3</ele>
        <time>2020-01-08T14:44:24Z</time>
      </trkpt>
      <trkpt lat="43.6306" lon="6.65647">
        <ele>338.3</ele>
        <time>2020-01-08T14:44:27Z</time>
      </trkpt>
      <trkpt lat="43.63064" lon="6.65643">
        <ele>338.4</ele>
        <time>2020-01-08T14:44:31Z</time>
      </trkpt>
      <trkpt lat="43.63069" lon="6.65638">
        <ele>338.5</ele>
        <time>2020-01-08T14:44:35Z</time>
      </trkpt>
      <trkpt lat="43.63073" lon="6.65633">
        <ele>338.6</ele>
        <time>2020-01-08T14:44:39Z</time>
      </trkpt>
      <trkpt lat="43.63077" lon="6.65629">
        <ele>338.8</ele>
        <time>2020-01-08T14:44:43Z</time>
      </trkpt>
      <trkpt lat="43.6308" lon="6.65624">
        <ele>338.9</ele>
        <time>2020-01-08T14:44:47Z</time>
      </trkpt>
      <trkpt lat="43.63083" lon="6.65619">
        <ele>339</ele>
        <time>2020-01-08T14:44:51Z</time>
      </trkpt>
      <trkpt lat="43.63087" lon="6.65614">
        <ele>339.2</ele>
        <time>2020-01-08T14:44:55Z</time>
      </trkpt>
      <trkpt lat="43.63091" lon="6.65608">
        <ele>339.5</ele>
        <time>2020-01-08T14:44:59Z</time>
      </trkpt>
      <trkpt lat="43.63096" lon="6.65604">
        <ele>339.8</ele>
        <time>2020-01-08T14:45:03Z</time>
      </trkpt>
      <trkpt lat="43.63099" lon="6.65599">
        <ele>340</ele>
        <time>2020-01-08T14:45:06Z</time>
      </trkpt>
      <trkpt lat="43.63104" lon="6.65595">
        <ele>340.3</ele>
        <time>2020-01-08T14:45:10Z</time>
      </trkpt>
      <trkpt lat="43.63109" lon="6.6559">
        <ele>340.5</ele>
        <time>2020-01-08T14:45:14Z</time>
      </trkpt>
      <trkpt lat="43.63112" lon="6.65585">
        <ele>340.7</ele>
        <time>2020-01-08T14:45:18Z</time>
      </trkpt>
      <trkpt lat="43.63116" lon="6.6558">
        <ele>340.8</ele>
        <time>2020-01-08T14:45:22Z</time>
      </trkpt>
      <trkpt lat="43.6312" lon="6.65575">
        <ele>340.7</ele>
        <time>2020-01-08T14:45:26Z</time>
      </trkpt>
      <trkpt lat="43.63124" lon="6.65572">
        <ele>340.6</ele>
        <time>2020-01-08T14:45:30Z</time>
      </trkpt>
      <trkpt lat="43.63127" lon="6.65568">
        <ele>340.4</ele>
        <time>2020-01-08T14:45:35Z</time>
      </trkpt>
      <trkpt lat="43.63131" lon="6.65564">
        <ele>340.6</ele>
        <time>2020-01-08T14:45:41Z</time>
      </trkpt>
      <trkpt lat="43.63136" lon="6.65561">
        <ele>341</ele>
        <time>2020-01-08T14:45:47Z</time>
      </trkpt>
      <trkpt lat="43.63139" lon="6.65555">
        <ele>341.3</ele>
        <time>2020-01-08T14:45:52Z</time>
      </trkpt>
      <trkpt lat="43.6314" lon="6.65548">
        <ele>341.4</ele>
        <time>2020-01-08T14:45:56Z</time>
      </trkpt>
      <trkpt lat="43.6314" lon="6.65541">
        <ele>341.8</ele>
        <time>2020-01-08T14:46:02Z</time>
      </trkpt>
      <trkpt lat="43.6314" lon="6.65534">
        <ele>342.1</ele>
        <time>2020-01-08T14:46:07Z</time>
      </trkpt>
      <trkpt lat="43.6314" lon="6.65528">
        <ele>342.6</ele>
        <time>2020-01-08T14:46:11Z</time>
      </trkpt>
      <trkpt lat="43.63138" lon="6.65522">
        <ele>343.2</ele>
        <time>2020-01-08T14:46:15Z</time>
      </trkpt>
      <trkpt lat="43.63136" lon="6.65515">
        <ele>343.8</ele>
        <time>2020-01-08T14:46:19Z</time>
      </trkpt>
      <trkpt lat="43.63135" lon="6.65508">
        <ele>344.2</ele>
        <time>2020-01-08T14:46:23Z</time>
      </trkpt>
      <trkpt lat="43.63133" lon="6.655">
        <ele>344.6</ele>
        <time>2020-01-08T14:46:27Z</time>
      </trkpt>
      <trkpt lat="43.63131" lon="6.65494">
        <ele>345.2</ele>
        <time>2020-01-08T14:46:32Z</time>
      </trkpt>
      <trkpt lat="43.63129" lon="6.65488">
        <ele>345.7</ele>
        <time>2020-01-08T14:46:36Z</time>
      </trkpt>
      <trkpt lat="43.63127" lon="6.65481">
        <ele>346.2</ele>
        <time>2020-01-08T14:46:40Z</time>
      </trkpt>
      <trkpt lat="43.63126" lon="6.65475">
        <ele>346.7</ele>
        <time>2020-01-08T14:46:44Z</time>
      </trkpt>
      <trkpt lat="43.63124" lon="6.65469">
        <ele>347.2</ele>
        <time>2020-01-08T14:46:48Z</time>
      </trkpt>
      <trkpt lat="43.63122" lon="6.65461">
        <ele>347.6</ele>
        <time>2020-01-08T14:46:52Z</time>
      </trkpt>
      <trkpt lat="43.63122" lon="6.65454">
        <ele>348.1</ele>
        <time>2020-01-08T14:46:56Z</time>
      </trkpt>
      <trkpt lat="43.63121" lon="6.65448">
        <ele>348.8</ele>
        <time>2020-01-08T14:47:01Z</time>
      </trkpt>
      <trkpt lat="43.63118" lon="6.65441">
        <ele>349.4</ele>
        <time>2020-01-08T14:47:05Z</time>
      </trkpt>
      <trkpt lat="43.63116" lon="6.65435">
        <ele>349.8</ele>
        <time>2020-01-08T14:47:08Z</time>
      </trkpt>
      <trkpt lat="43.63114" lon="6.65428">
        <ele>350.5</ele>
        <time>2020-01-08T14:47:12Z</time>
      </trkpt>
      <trkpt lat="43.63112" lon="6.65422">
        <ele>351.3</ele>
        <time>2020-01-08T14:47:17Z</time>
      </trkpt>
      <trkpt lat="43.63112" lon="6.65415">
        <ele>351.9</ele>
        <time>2020-01-08T14:47:21Z</time>
      </trkpt>
      <trkpt lat="43.63111" lon="6.65408">
        <ele>352.3</ele>
        <time>2020-01-08T14:47:24Z</time>
      </trkpt>
      <trkpt lat="43.6311" lon="6.65402">
        <ele>352.8</ele>
        <time>2020-01-08T14:47:28Z</time>
      </trkpt>
      <trkpt lat="43.63107" lon="6.65394">
        <ele>353.8</ele>
        <time>2020-01-08T14:47:34Z</time>
      </trkpt>
      <trkpt lat="43.63105" lon="6.65388">
        <ele>354.2</ele>
        <time>2020-01-08T14:47:37Z</time>
      </trkpt>
      <trkpt lat="43.63102" lon="6.65381">
        <ele>354.5</ele>
        <time>2020-01-08T14:47:40Z</time>
      </trkpt>
      <trkpt lat="43.631" lon="6.65375">
        <ele>354.7</ele>
        <time>2020-01-08T14:47:43Z</time>
      </trkpt>
      <trkpt lat="43.63097" lon="6.65369">
        <ele>354.9</ele>
        <time>2020-01-08T14:47:47Z</time>
      </trkpt>
      <trkpt lat="43.63094" lon="6.65362">
        <ele>355.2</ele>
        <time>2020-01-08T14:47:52Z</time>
      </trkpt>
      <trkpt lat="43.63091" lon="6.65355">
        <ele>355.2</ele>
        <time>2020-01-08T14:47:56Z</time>
      </trkpt>
      <trkpt lat="43.63089" lon="6.65348">
        <ele>355.3</ele>
        <time>2020-01-08T14:48:00Z</time>
      </trkpt>
      <trkpt lat="43.63088" lon="6.65341">
        <ele>355.3</ele>
        <time>2020-01-08T14:48:03Z</time>
      </trkpt>
      <trkpt lat="43.63086" lon="6.65334">
        <ele>355.4</ele>
        <time>2020-01-08T14:48:07Z</time>
      </trkpt>
      <trkpt lat="43.63085" lon="6.65327">
        <ele>355.7</ele>
        <time>2020-01-08T14:48:12Z</time>
      </trkpt>
      <trkpt lat="43.63083" lon="6.6532">
        <ele>356.1</ele>
        <time>2020-01-08T14:48:17Z</time>
      </trkpt>
      <trkpt lat="43.63081" lon="6.65313">
        <ele>356.4</ele>
        <time>2020-01-08T14:48:21Z</time>
      </trkpt>
      <trkpt lat="43.6308" lon="6.65307">
        <ele>356.6</ele>
        <time>2020-01-08T14:48:25Z</time>
      </trkpt>
      <trkpt lat="43.63077" lon="6.65301">
        <ele>356.8</ele>
        <time>2020-01-08T14:48:29Z</time>
      </trkpt>
      <trkpt lat="43.63074" lon="6.65296">
        <ele>357.1</ele>
        <time>2020-01-08T14:48:33Z</time>
      </trkpt>
      <trkpt lat="43.63071" lon="6.6529">
        <ele>357.3</ele>
        <time>2020-01-08T14:48:37Z</time>
      </trkpt>
      <trkpt lat="43.63068" lon="6.65284">
        <ele>357.6</ele>
        <time>2020-01-08T14:48:42Z</time>
      </trkpt>
      <trkpt lat="43.63065" lon="6.65278">
        <ele>358</ele>
        <time>2020-01-08T14:48:46Z</time>
      </trkpt>
      <trkpt lat="43.63062" lon="6.65273">
        <ele>358.2</ele>
        <time>2020-01-08T14:48:49Z</time>
      </trkpt>
      <trkpt lat="43.63059" lon="6.65268">
        <ele>358.5</ele>
        <time>2020-01-08T14:48:53Z</time>
      </trkpt>
      <trkpt lat="43.63055" lon="6.65263">
        <ele>358.9</ele>
        <time>2020-01-08T14:48:58Z</time>
      </trkpt>
      <trkpt lat="43.63052" lon="6.65256">
        <ele>359.6</ele>
        <time>2020-01-08T14:49:03Z</time>
      </trkpt>
      <trkpt lat="43.6305" lon="6.6525">
        <ele>360.2</ele>
        <time>2020-01-08T14:49:07Z</time>
      </trkpt>
      <trkpt lat="43.63046" lon="6.65245">
        <ele>360.8</ele>
        <time>2020-01-08T14:49:11Z</time>
      </trkpt>
      <trkpt lat="43.63042" lon="6.65241">
        <ele>361.3</ele>
        <time>2020-01-08T14:49:15Z</time>
      </trkpt>
      <trkpt lat="43.63038" lon="6.65236">
        <ele>361.8</ele>
        <time>2020-01-08T14:49:19Z</time>
      </trkpt>
      <trkpt lat="43.63035" lon="6.6523">
        <ele>362.3</ele>
        <time>2020-01-08T14:49:23Z</time>
      </trkpt>
      <trkpt lat="43.63032" lon="6.65224">
        <ele>362.6</ele>
        <time>2020-01-08T14:49:27Z</time>
      </trkpt>
      <trkpt lat="43.63028" lon="6.65218">
        <ele>362.7</ele>
        <time>2020-01-08T14:49:31Z</time>
      </trkpt>
      <trkpt lat="43.63026" lon="6.65213">
        <ele>362.6</ele>
        <time>2020-01-08T14:49:36Z</time>
      </trkpt>
      <trkpt lat="43.63022" lon="6.65207">
        <ele>362.4</ele>
        <time>2020-01-08T14:49:40Z</time>
      </trkpt>
      <trkpt lat="43.63018" lon="6.65203">
        <ele>362.1</ele>
        <time>2020-01-08T14:49:43Z</time>
      </trkpt>
      <trkpt lat="43.63014" lon="6.652">
        <ele>361.7</ele>
        <time>2020-01-08T14:49:46Z</time>
      </trkpt>
      <trkpt lat="43.63011" lon="6.65195">
        <ele>360.9</ele>
        <time>2020-01-08T14:49:50Z</time>
      </trkpt>
      <trkpt lat="43.63007" lon="6.65191">
        <ele>359.7</ele>
        <time>2020-01-08T14:49:55Z</time>
      </trkpt>
      <trkpt lat="43.63001" lon="6.65187">
        <ele>358.2</ele>
        <time>2020-01-08T14:50:00Z</time>
      </trkpt>
      <trkpt lat="43.62997" lon="6.65183">
        <ele>357.4</ele>
        <time>2020-01-08T14:50:03Z</time>
      </trkpt>
      <trkpt lat="43.62991" lon="6.65181">
        <ele>356.5</ele>
        <time>2020-01-08T14:50:07Z</time>
      </trkpt>
      <trkpt lat="43.62987" lon="6.65179">
        <ele>355.7</ele>
        <time>2020-01-08T14:50:10Z</time>
      </trkpt>
      <trkpt lat="43.6298" lon="6.65178">
        <ele>354.3</ele>
        <time>2020-01-08T14:50:14Z</time>
      </trkpt>
      <trkpt lat="43.62972" lon="6.65174">
        <ele>352.6</ele>
        <time>2020-01-08T14:50:17Z</time>
      </trkpt>
      <trkpt lat="43.62964" lon="6.65172">
        <ele>351.1</ele>
        <time>2020-01-08T14:50:20Z</time>
      </trkpt>
      <trkpt lat="43.62958" lon="6.65171">
        <ele>349.7</ele>
        <time>2020-01-08T14:50:23Z</time>
      </trkpt>
      <trkpt lat="43.62952" lon="6.65169">
        <ele>348.1</ele>
        <time>2020-01-08T14:50:26Z</time>
      </trkpt>
      <trkpt lat="43.62946" lon="6.65168">
        <ele>346.2</ele>
        <time>2020-01-08T14:50:29Z</time>
      </trkpt>
      <trkpt lat="43.62941" lon="6.65167">
        <ele>344.2</ele>
        <time>2020-01-08T14:50:32Z</time>
      </trkpt>
      <trkpt lat="43.62935" lon="6.65166">
        <ele>341.4</ele>
        <time>2020-01-08T14:50:36Z</time>
      </trkpt>
      <trkpt lat="43.6293" lon="6.65164">
        <ele>338.6</ele>
        <time>2020-01-08T14:50:40Z</time>
      </trkpt>
      <trkpt lat="43.62926" lon="6.65162">
        <ele>336.5</ele>
        <time>2020-01-08T14:50:43Z</time>
      </trkpt>
      <trkpt lat="43.62921" lon="6.65161">
        <ele>334.4</ele>
        <time>2020-01-08T14:50:46Z</time>
      </trkpt>
      <trkpt lat="43.62916" lon="6.6516">
        <ele>332.4</ele>
        <time>2020-01-08T14:50:49Z</time>
      </trkpt>
      <trkpt lat="43.62912" lon="6.65158">
        <ele>330.9</ele>
        <time>2020-01-08T14:50:52Z</time>
      </trkpt>
      <trkpt lat="43.62906" lon="6.65156">
        <ele>329.1</ele>
        <time>2020-01-08T14:50:56Z</time>
      </trkpt>
      <trkpt lat="43.62901" lon="6.65154">
        <ele>327.4</ele>
        <time>2020-01-08T14:51:00Z</time>
      </trkpt>
      <trkpt lat="43.62896" lon="6.65151">
        <ele>325.8</ele>
        <time>2020-01-08T14:51:04Z</time>
      </trkpt>
      <trkpt lat="43.62891" lon="6.6515">
        <ele>324.4</ele>
        <time>2020-01-08T14:51:08Z</time>
      </trkpt>
      <trkpt lat="43.62886" lon="6.65147">
        <ele>323.2</ele>
        <time>2020-01-08T14:51:12Z</time>
      </trkpt>
      <trkpt lat="43.62881" lon="6.65144">
        <ele>322</ele>
        <time>2020-01-08T14:51:17Z</time>
      </trkpt>
      <trkpt lat="43.62877" lon="6.6514">
        <ele>320.7</ele>
        <time>2020-01-08T14:51:21Z</time>
      </trkpt>
      <trkpt lat="43.62872" lon="6.65137">
        <ele>318.3</ele>
        <time>2020-01-08T14:51:29Z</time>
      </trkpt>
      <trkpt lat="43.62867" lon="6.65135">
        <ele>317.5</ele>
        <time>2020-01-08T14:51:33Z</time>
      </trkpt>
      <trkpt lat="43.62863" lon="6.65132">
        <ele>317.2</ele>
        <time>2020-01-08T14:51:37Z</time>
      </trkpt>
      <trkpt lat="43.62858" lon="6.65129">
        <ele>317.6</ele>
        <time>2020-01-08T14:51:42Z</time>
      </trkpt>
      <trkpt lat="43.62853" lon="6.65126">
        <ele>318.1</ele>
        <time>2020-01-08T14:51:47Z</time>
      </trkpt>
      <trkpt lat="43.62849" lon="6.65123">
        <ele>318.6</ele>
        <time>2020-01-08T14:51:51Z</time>
      </trkpt>
      <trkpt lat="43.62844" lon="6.65121">
        <ele>319</ele>
        <time>2020-01-08T14:51:55Z</time>
      </trkpt>
      <trkpt lat="43.62839" lon="6.65118">
        <ele>319.3</ele>
        <time>2020-01-08T14:51:58Z</time>
      </trkpt>
      <trkpt lat="43.62834" lon="6.65117">
        <ele>319.5</ele>
        <time>2020-01-08T14:52:01Z</time>
      </trkpt>
      <trkpt lat="43.62829" lon="6.65114">
        <ele>319.6</ele>
        <time>2020-01-08T14:52:04Z</time>
      </trkpt>
      <trkpt lat="43.62825" lon="6.65111">
        <ele>319.6</ele>
        <time>2020-01-08T14:52:08Z</time>
      </trkpt>
      <trkpt lat="43.6282" lon="6.6511">
        <ele>319.9</ele>
        <time>2020-01-08T14:52:13Z</time>
      </trkpt>
      <trkpt lat="43.62815" lon="6.65108">
        <ele>321.1</ele>
        <time>2020-01-08T14:52:19Z</time>
      </trkpt>
      <trkpt lat="43.6281" lon="6.65106">
        <ele>322.3</ele>
        <time>2020-01-08T14:52:24Z</time>
      </trkpt>
      <trkpt lat="43.62805" lon="6.65105">
        <ele>323.2</ele>
        <time>2020-01-08T14:52:28Z</time>
      </trkpt>
      <trkpt lat="43.62799" lon="6.65103">
        <ele>323.5</ele>
        <time>2020-01-08T14:52:31Z</time>
      </trkpt>
      <trkpt lat="43.62793" lon="6.65101">
        <ele>323.5</ele>
        <time>2020-01-08T14:52:34Z</time>
      </trkpt>
      <trkpt lat="43.62788" lon="6.65099">
        <ele>323.3</ele>
        <time>2020-01-08T14:52:37Z</time>
      </trkpt>
      <trkpt lat="43.62782" lon="6.65098">
        <ele>323</ele>
        <time>2020-01-08T14:52:40Z</time>
      </trkpt>
      <trkpt lat="43.62774" lon="6.65096">
        <ele>322.9</ele>
        <time>2020-01-08T14:52:43Z</time>
      </trkpt>
      <trkpt lat="43.62768" lon="6.65095">
        <ele>322.9</ele>
        <time>2020-01-08T14:52:46Z</time>
      </trkpt>
      <trkpt lat="43.62763" lon="6.65094">
        <ele>323.2</ele>
        <time>2020-01-08T14:52:49Z</time>
      </trkpt>
      <trkpt lat="43.62759" lon="6.65092">
        <ele>323.7</ele>
        <time>2020-01-08T14:52:52Z</time>
      </trkpt>
      <trkpt lat="43.62754" lon="6.6509">
        <ele>324.2</ele>
        <time>2020-01-08T14:52:55Z</time>
      </trkpt>
      <trkpt lat="43.6275" lon="6.65088">
        <ele>324.8</ele>
        <time>2020-01-08T14:52:58Z</time>
      </trkpt>
      <trkpt lat="43.62745" lon="6.65087">
        <ele>325.4</ele>
        <time>2020-01-08T14:53:01Z</time>
      </trkpt>
      <trkpt lat="43.6274" lon="6.65085">
        <ele>326.1</ele>
        <time>2020-01-08T14:53:05Z</time>
      </trkpt>
      <trkpt lat="43.62735" lon="6.65084">
        <ele>326.3</ele>
        <time>2020-01-08T14:53:08Z</time>
      </trkpt>
      <trkpt lat="43.62731" lon="6.65083">
        <ele>326.5</ele>
        <time>2020-01-08T14:53:11Z</time>
      </trkpt>
      <trkpt lat="43.62726" lon="6.65082">
        <ele>326.6</ele>
        <time>2020-01-08T14:53:15Z</time>
      </trkpt>
      <trkpt lat="43.62721" lon="6.65081">
        <ele>326.5</ele>
        <time>2020-01-08T14:53:19Z</time>
      </trkpt>
      <trkpt lat="43.62716" lon="6.6508">
        <ele>326.5</ele>
        <time>2020-01-08T14:53:23Z</time>
      </trkpt>
      <trkpt lat="43.6271" lon="6.65078">
        <ele>326.3</ele>
        <time>2020-01-08T14:53:27Z</time>
      </trkpt>
      <trkpt lat="43.62704" lon="6.65078">
        <ele>326.5</ele>
        <time>2020-01-08T14:53:31Z</time>
      </trkpt>
      <trkpt lat="43.62699" lon="6.65077">
        <ele>326.8</ele>
        <time>2020-01-08T14:53:35Z</time>
      </trkpt>
      <trkpt lat="43.62695" lon="6.65076">
        <ele>327.2</ele>
        <time>2020-01-08T14:53:38Z</time>
      </trkpt>
      <trkpt lat="43.62689" lon="6.65077">
        <ele>327.6</ele>
        <time>2020-01-08T14:53:41Z</time>
      </trkpt>
      <trkpt lat="43.62685" lon="6.65079">
        <ele>328.7</ele>
        <time>2020-01-08T14:53:44Z</time>
      </trkpt>
      <trkpt lat="43.6268" lon="6.65079">
        <ele>330.3</ele>
        <time>2020-01-08T14:53:48Z</time>
      </trkpt>
      <trkpt lat="43.62675" lon="6.6508">
        <ele>332.2</ele>
        <time>2020-01-08T14:53:53Z</time>
      </trkpt>
      <trkpt lat="43.6267" lon="6.65084">
        <ele>333.1</ele>
        <time>2020-01-08T14:53:57Z</time>
      </trkpt>
      <trkpt lat="43.62665" lon="6.65085">
        <ele>333.3</ele>
        <time>2020-01-08T14:54:00Z</time>
      </trkpt>
      <trkpt lat="43.62659" lon="6.65086">
        <ele>333.4</ele>
        <time>2020-01-08T14:54:03Z</time>
      </trkpt>
      <trkpt lat="43.62654" lon="6.65087">
        <ele>333.3</ele>
        <time>2020-01-08T14:54:06Z</time>
      </trkpt>
      <trkpt lat="43.62649" lon="6.65086">
        <ele>332.3</ele>
        <time>2020-01-08T14:54:10Z</time>
      </trkpt>
      <trkpt lat="43.62644" lon="6.65081">
        <ele>328.6</ele>
        <time>2020-01-08T14:54:20Z</time>
      </trkpt>
      <trkpt lat="43.62639" lon="6.6508">
        <ele>327.8</ele>
        <time>2020-01-08T14:54:23Z</time>
      </trkpt>
      <trkpt lat="43.62634" lon="6.65082">
        <ele>326.6</ele>
        <time>2020-01-08T14:54:28Z</time>
      </trkpt>
      <trkpt lat="43.62629" lon="6.65084">
        <ele>325.7</ele>
        <time>2020-01-08T14:54:33Z</time>
      </trkpt>
      <trkpt lat="43.62624" lon="6.65084">
        <ele>325.7</ele>
        <time>2020-01-08T14:54:36Z</time>
      </trkpt>
      <trkpt lat="43.62617" lon="6.65083">
        <ele>325.9</ele>
        <time>2020-01-08T14:54:39Z</time>
      </trkpt>
      <trkpt lat="43.62611" lon="6.65083">
        <ele>326.2</ele>
        <time>2020-01-08T14:54:42Z</time>
      </trkpt>
      <trkpt lat="43.62605" lon="6.65085">
        <ele>326.2</ele>
        <time>2020-01-08T14:54:45Z</time>
      </trkpt>
      <trkpt lat="43.62601" lon="6.65088">
        <ele>326.2</ele>
        <time>2020-01-08T14:54:50Z</time>
      </trkpt>
      <trkpt lat="43.62596" lon="6.65091">
        <ele>326</ele>
        <time>2020-01-08T14:54:55Z</time>
      </trkpt>
      <trkpt lat="43.62591" lon="6.65094">
        <ele>325.8</ele>
        <time>2020-01-08T14:54:59Z</time>
      </trkpt>
      <trkpt lat="43.62587" lon="6.65097">
        <ele>326.1</ele>
        <time>2020-01-08T14:55:02Z</time>
      </trkpt>
      <trkpt lat="43.62582" lon="6.65099">
        <ele>326.8</ele>
        <time>2020-01-08T14:55:07Z</time>
      </trkpt>
      <trkpt lat="43.62577" lon="6.65101">
        <ele>328.1</ele>
        <time>2020-01-08T14:55:11Z</time>
      </trkpt>
      <trkpt lat="43.62571" lon="6.65103">
        <ele>329</ele>
        <time>2020-01-08T14:55:14Z</time>
      </trkpt>
      <trkpt lat="43.62566" lon="6.65103">
        <ele>329.8</ele>
        <time>2020-01-08T14:55:17Z</time>
      </trkpt>
      <trkpt lat="43.62562" lon="6.65105">
        <ele>330.6</ele>
        <time>2020-01-08T14:55:22Z</time>
      </trkpt>
      <trkpt lat="43.62557" lon="6.65109">
        <ele>331</ele>
        <time>2020-01-08T14:55:26Z</time>
      </trkpt>
      <trkpt lat="43.62552" lon="6.65111">
        <ele>331.1</ele>
        <time>2020-01-08T14:55:29Z</time>
      </trkpt>
      <trkpt lat="43.62548" lon="6.65114">
        <ele>331.2</ele>
        <time>2020-01-08T14:55:34Z</time>
      </trkpt>
      <trkpt lat="43.62544" lon="6.65118">
        <ele>331.2</ele>
        <time>2020-01-08T14:55:39Z</time>
      </trkpt>
      <trkpt lat="43.62538" lon="6.6512">
        <ele>331.2</ele>
        <time>2020-01-08T14:55:42Z</time>
      </trkpt>
      <trkpt lat="43.62534" lon="6.65123">
        <ele>326.8</ele>
        <time>2020-01-08T13:15:16Z</time>
      </trkpt>
      <trkpt lat="43.62534" lon="6.65123">
        <ele>326.8</ele>
        <time>2020-01-08T13:15:16Z</time>
      </trkpt>
      <trkpt lat="43.62531" lon="6.65129">
        <ele>331.7</ele>
        <time>2020-01-08T13:15:21Z</time>
      </trkpt>
      <trkpt lat="43.62528" lon="6.65134">
        <ele>335.6</ele>
        <time>2020-01-08T13:15:25Z</time>
      </trkpt>
      <trkpt lat="43.62524" lon="6.65139">
        <ele>339.6</ele>
        <time>2020-01-08T13:15:29Z</time>
      </trkpt>
      <trkpt lat="43.62519" lon="6.65142">
        <ele>344</ele>
        <time>2020-01-08T13:15:34Z</time>
      </trkpt>
      <trkpt lat="43.62514" lon="6.65141">
        <ele>350.7</ele>
        <time>2020-01-08T13:15:59Z</time>
      </trkpt>
      <trkpt lat="43.62511" lon="6.65146">
        <ele>351.9</ele>
        <time>2020-01-08T13:16:08Z</time>
      </trkpt>
      <trkpt lat="43.62508" lon="6.65152">
        <ele>352.3</ele>
        <time>2020-01-08T13:16:13Z</time>
      </trkpt>
      <trkpt lat="43.62506" lon="6.65158">
        <ele>352.4</ele>
        <time>2020-01-08T13:16:18Z</time>
      </trkpt>
      <trkpt lat="43.62502" lon="6.65163">
        <ele>352.6</ele>
        <time>2020-01-08T13:16:24Z</time>
      </trkpt>
      <trkpt lat="43.62499" lon="6.65167">
        <ele>352.9</ele>
        <time>2020-01-08T13:16:29Z</time>
      </trkpt>
      <trkpt lat="43.62494" lon="6.65172">
        <ele>353.1</ele>
        <time>2020-01-08T13:16:34Z</time>
      </trkpt>
      <trkpt lat="43.62489" lon="6.65177">
        <ele>353.4</ele>
        <time>2020-01-08T13:16:38Z</time>
      </trkpt>
      <trkpt lat="43.62486" lon="6.65182">
        <ele>354.6</ele>
        <time>2020-01-08T13:16:44Z</time>
      </trkpt>
      <trkpt lat="43.62483" lon="6.65187">
        <ele>355.1</ele>
        <time>2020-01-08T13:16:48Z</time>
      </trkpt>
      <trkpt lat="43.6248" lon="6.65193">
        <ele>355.2</ele>
        <time>2020-01-08T13:16:52Z</time>
      </trkpt>
      <trkpt lat="43.62476" lon="6.65198">
        <ele>355</ele>
        <time>2020-01-08T13:16:57Z</time>
      </trkpt>
      <trkpt lat="43.62472" lon="6.65203">
        <ele>354.9</ele>
        <time>2020-01-08T13:17:01Z</time>
      </trkpt>
      <trkpt lat="43.62468" lon="6.65208">
        <ele>354.8</ele>
        <time>2020-01-08T13:17:05Z</time>
      </trkpt>
      <trkpt lat="43.62464" lon="6.65213">
        <ele>354.7</ele>
        <time>2020-01-08T13:17:09Z</time>
      </trkpt>
      <trkpt lat="43.62462" lon="6.65219">
        <ele>354.7</ele>
        <time>2020-01-08T13:17:14Z</time>
      </trkpt>
      <trkpt lat="43.62459" lon="6.65224">
        <ele>354.8</ele>
        <time>2020-01-08T13:17:19Z</time>
      </trkpt>
      <trkpt lat="43.62455" lon="6.65229">
        <ele>354.9</ele>
        <time>2020-01-08T13:17:22Z</time>
      </trkpt>
      <trkpt lat="43.62451" lon="6.65233">
        <ele>355.1</ele>
        <time>2020-01-08T13:17:25Z</time>
      </trkpt>
      <trkpt lat="43.62446" lon="6.65237">
        <ele>355.3</ele>
        <time>2020-01-08T13:17:29Z</time>
      </trkpt>
      <trkpt lat="43.62441" lon="6.65241">
        <ele>355.7</ele>
        <time>2020-01-08T13:17:33Z</time>
      </trkpt>
      <trkpt lat="43.62437" lon="6.65244">
        <ele>356.4</ele>
        <time>2020-01-08T13:17:37Z</time>
      </trkpt>
      <trkpt lat="43.62432" lon="6.65248">
        <ele>357.2</ele>
        <time>2020-01-08T13:17:41Z</time>
      </trkpt>
      <trkpt lat="43.62429" lon="6.65254">
        <ele>358</ele>
        <time>2020-01-08T13:17:45Z</time>
      </trkpt>
      <trkpt lat="43.62427" lon="6.65259">
        <ele>358.5</ele>
        <time>2020-01-08T13:17:48Z</time>
      </trkpt>
      <trkpt lat="43.62423" lon="6.65263">
        <ele>359.1</ele>
        <time>2020-01-08T13:17:51Z</time>
      </trkpt>
      <trkpt lat="43.62419" lon="6.65267">
        <ele>359.7</ele>
        <time>2020-01-08T13:17:54Z</time>
      </trkpt>
      <trkpt lat="43.62416" lon="6.65274">
        <ele>360.4</ele>
        <time>2020-01-08T13:17:58Z</time>
      </trkpt>
      <trkpt lat="43.62413" lon="6.65279">
        <ele>360.9</ele>
        <time>2020-01-08T13:18:02Z</time>
      </trkpt>
      <trkpt lat="43.62408" lon="6.65284">
        <ele>362.3</ele>
        <time>2020-01-08T13:18:09Z</time>
      </trkpt>
      <trkpt lat="43.62404" lon="6.65288">
        <ele>363.1</ele>
        <time>2020-01-08T13:18:13Z</time>
      </trkpt>
      <trkpt lat="43.62402" lon="6.65294">
        <ele>364</ele>
        <time>2020-01-08T13:18:16Z</time>
      </trkpt>
      <trkpt lat="43.62397" lon="6.65296">
        <ele>365.1</ele>
        <time>2020-01-08T13:18:22Z</time>
      </trkpt>
      <trkpt lat="43.62392" lon="6.65296">
        <ele>366</ele>
        <time>2020-01-08T13:18:26Z</time>
      </trkpt>
      <trkpt lat="43.62387" lon="6.65297">
        <ele>366.9</ele>
        <time>2020-01-08T13:18:29Z</time>
      </trkpt>
      <trkpt lat="43.62381" lon="6.65296">
        <ele>367.9</ele>
        <time>2020-01-08T13:18:33Z</time>
      </trkpt>
      <trkpt lat="43.62376" lon="6.65299">
        <ele>368.8</ele>
        <time>2020-01-08T13:18:37Z</time>
      </trkpt>
      <trkpt lat="43.62372" lon="6.65304">
        <ele>369.7</ele>
        <time>2020-01-08T13:18:40Z</time>
      </trkpt>
      <trkpt lat="43.62369" lon="6.6531">
        <ele>370.8</ele>
        <time>2020-01-08T13:18:43Z</time>
      </trkpt>
      <trkpt lat="43.62362" lon="6.65312">
        <ele>371.3</ele>
        <time>2020-01-08T13:18:46Z</time>
      </trkpt>
      <trkpt lat="43.62356" lon="6.65312">
        <ele>371.6</ele>
        <time>2020-01-08T13:18:49Z</time>
      </trkpt>
      <trkpt lat="43.62352" lon="6.65316">
        <ele>372.2</ele>
        <time>2020-01-08T13:18:52Z</time>
      </trkpt>
      <trkpt lat="43.62348" lon="6.6532">
        <ele>372.8</ele>
        <time>2020-01-08T13:18:55Z</time>
      </trkpt>
      <trkpt lat="43.62342" lon="6.65323">
        <ele>372.7</ele>
        <time>2020-01-08T13:18:58Z</time>
      </trkpt>
      <trkpt lat="43.62336" lon="6.65322">
        <ele>372</ele>
        <time>2020-01-08T13:19:01Z</time>
      </trkpt>
      <trkpt lat="43.62332" lon="6.65327">
        <ele>370.8</ele>
        <time>2020-01-08T13:19:08Z</time>
      </trkpt>
      <trkpt lat="43.62327" lon="6.65332">
        <ele>370.7</ele>
        <time>2020-01-08T13:19:12Z</time>
      </trkpt>
      <trkpt lat="43.62323" lon="6.65335">
        <ele>370.4</ele>
        <time>2020-01-08T13:19:16Z</time>
      </trkpt>
      <trkpt lat="43.6232" lon="6.6534">
        <ele>370.1</ele>
        <time>2020-01-08T13:19:23Z</time>
      </trkpt>
      <trkpt lat="43.62317" lon="6.65345">
        <ele>370.2</ele>
        <time>2020-01-08T13:19:30Z</time>
      </trkpt>
      <trkpt lat="43.62311" lon="6.65348">
        <ele>370.5</ele>
        <time>2020-01-08T13:19:34Z</time>
      </trkpt>
      <trkpt lat="43.62305" lon="6.65349">
        <ele>370.8</ele>
        <time>2020-01-08T13:19:37Z</time>
      </trkpt>
      <trkpt lat="43.62299" lon="6.65351">
        <ele>371.3</ele>
        <time>2020-01-08T13:19:40Z</time>
      </trkpt>
      <trkpt lat="43.62293" lon="6.65351">
        <ele>371.8</ele>
        <time>2020-01-08T13:19:43Z</time>
      </trkpt>
      <trkpt lat="43.62288" lon="6.65352">
        <ele>372.6</ele>
        <time>2020-01-08T13:19:47Z</time>
      </trkpt>
      <trkpt lat="43.62283" lon="6.65355">
        <ele>373.4</ele>
        <time>2020-01-08T13:19:52Z</time>
      </trkpt>
      <trkpt lat="43.62279" lon="6.65355">
        <ele>373.9</ele>
        <time>2020-01-08T13:19:55Z</time>
      </trkpt>
      <trkpt lat="43.62273" lon="6.65354">
        <ele>374.4</ele>
        <time>2020-01-08T13:19:58Z</time>
      </trkpt>
      <trkpt lat="43.62267" lon="6.65356">
        <ele>374.9</ele>
        <time>2020-01-08T13:20:01Z</time>
      </trkpt>
      <trkpt lat="43.62261" lon="6.65357">
        <ele>375.6</ele>
        <time>2020-01-08T13:20:05Z</time>
      </trkpt>
      <trkpt lat="43.62255" lon="6.6536">
        <ele>376</ele>
        <time>2020-01-08T13:20:08Z</time>
      </trkpt>
      <trkpt lat="43.62248" lon="6.65361">
        <ele>376.2</ele>
        <time>2020-01-08T13:20:11Z</time>
      </trkpt>
      <trkpt lat="43.62243" lon="6.65361">
        <ele>376.1</ele>
        <time>2020-01-08T13:20:14Z</time>
      </trkpt>
      <trkpt lat="43.62238" lon="6.65361">
        <ele>375.6</ele>
        <time>2020-01-08T13:20:18Z</time>
      </trkpt>
      <trkpt lat="43.62234" lon="6.65359">
        <ele>374.2</ele>
        <time>2020-01-08T13:20:27Z</time>
      </trkpt>
      <trkpt lat="43.62228" lon="6.65358">
        <ele>373.5</ele>
        <time>2020-01-08T13:20:32Z</time>
      </trkpt>
      <trkpt lat="43.6222" lon="6.65358">
        <ele>372.5</ele>
        <time>2020-01-08T13:20:35Z</time>
      </trkpt>
      <trkpt lat="43.62212" lon="6.65359">
        <ele>371.5</ele>
        <time>2020-01-08T13:20:38Z</time>
      </trkpt>
      <trkpt lat="43.62207" lon="6.65362">
        <ele>370.7</ele>
        <time>2020-01-08T13:20:41Z</time>
      </trkpt>
      <trkpt lat="43.62203" lon="6.65365">
        <ele>370.2</ele>
        <time>2020-01-08T13:20:44Z</time>
      </trkpt>
      <trkpt lat="43.62197" lon="6.65366">
        <ele>369.8</ele>
        <time>2020-01-08T13:20:48Z</time>
      </trkpt>
      <trkpt lat="43.62191" lon="6.65368">
        <ele>369.5</ele>
        <time>2020-01-08T13:20:52Z</time>
      </trkpt>
      <trkpt lat="43.62186" lon="6.65369">
        <ele>368.4</ele>
        <time>2020-01-08T13:20:56Z</time>
      </trkpt>
      <trkpt lat="43.6218" lon="6.6537">
        <ele>366.8</ele>
        <time>2020-01-08T13:20:59Z</time>
      </trkpt>
      <trkpt lat="43.62176" lon="6.65371">
        <ele>365.4</ele>
        <time>2020-01-08T13:21:02Z</time>
      </trkpt>
      <trkpt lat="43.6217" lon="6.65371">
        <ele>363.8</ele>
        <time>2020-01-08T13:21:06Z</time>
      </trkpt>
      <trkpt lat="43.62166" lon="6.65371">
        <ele>362.6</ele>
        <time>2020-01-08T13:21:09Z</time>
      </trkpt>
      <trkpt lat="43.62161" lon="6.65372">
        <ele>360.6</ele>
        <time>2020-01-08T13:21:14Z</time>
      </trkpt>
      <trkpt lat="43.62157" lon="6.65373">
        <ele>358.5</ele>
        <time>2020-01-08T13:21:18Z</time>
      </trkpt>
      <trkpt lat="43.62151" lon="6.65373">
        <ele>357.2</ele>
        <time>2020-01-08T13:21:22Z</time>
      </trkpt>
      <trkpt lat="43.62146" lon="6.65373">
        <ele>356.7</ele>
        <time>2020-01-08T13:21:25Z</time>
      </trkpt>
      <trkpt lat="43.62142" lon="6.65372">
        <ele>356.4</ele>
        <time>2020-01-08T13:21:28Z</time>
      </trkpt>
      <trkpt lat="43.62137" lon="6.65371">
        <ele>356.3</ele>
        <time>2020-01-08T13:21:31Z</time>
      </trkpt>
      <trkpt lat="43.62131" lon="6.6537">
        <ele>356.3</ele>
        <time>2020-01-08T13:21:35Z</time>
      </trkpt>
      <trkpt lat="43.62126" lon="6.65371">
        <ele>356.3</ele>
        <time>2020-01-08T13:21:39Z</time>
      </trkpt>
      <trkpt lat="43.62121" lon="6.65371">
        <ele>355.9</ele>
        <time>2020-01-08T13:21:43Z</time>
      </trkpt>
      <trkpt lat="43.62117" lon="6.65369">
        <ele>355.3</ele>
        <time>2020-01-08T13:21:48Z</time>
      </trkpt>
      <trkpt lat="43.62112" lon="6.65369">
        <ele>354.4</ele>
        <time>2020-01-08T13:21:53Z</time>
      </trkpt>
      <trkpt lat="43.62107" lon="6.65367">
        <ele>353.9</ele>
        <time>2020-01-08T13:21:57Z</time>
      </trkpt>
      <trkpt lat="43.62101" lon="6.65366">
        <ele>353.5</ele>
        <time>2020-01-08T13:22:01Z</time>
      </trkpt>
      <trkpt lat="43.62096" lon="6.65364">
        <ele>353.3</ele>
        <time>2020-01-08T13:22:04Z</time>
      </trkpt>
      <trkpt lat="43.62091" lon="6.65363">
        <ele>353.1</ele>
        <time>2020-01-08T13:22:07Z</time>
      </trkpt>
      <trkpt lat="43.62087" lon="6.65361">
        <ele>352.5</ele>
        <time>2020-01-08T13:22:11Z</time>
      </trkpt>
      <trkpt lat="43.62082" lon="6.65359">
        <ele>351.8</ele>
        <time>2020-01-08T13:22:15Z</time>
      </trkpt>
      <trkpt lat="43.62077" lon="6.65359">
        <ele>351.1</ele>
        <time>2020-01-08T13:22:19Z</time>
      </trkpt>
      <trkpt lat="43.62071" lon="6.65358">
        <ele>350.7</ele>
        <time>2020-01-08T13:22:23Z</time>
      </trkpt>
      <trkpt lat="43.62066" lon="6.65355">
        <ele>350.5</ele>
        <time>2020-01-08T13:22:27Z</time>
      </trkpt>
      <trkpt lat="43.6206" lon="6.65352">
        <ele>350.4</ele>
        <time>2020-01-08T13:22:31Z</time>
      </trkpt>
      <trkpt lat="43.62056" lon="6.65349">
        <ele>350.5</ele>
        <time>2020-01-08T13:22:35Z</time>
      </trkpt>
      <trkpt lat="43.62051" lon="6.65346">
        <ele>350.8</ele>
        <time>2020-01-08T13:22:39Z</time>
      </trkpt>
      <trkpt lat="43.62047" lon="6.65345">
        <ele>351</ele>
        <time>2020-01-08T13:22:42Z</time>
      </trkpt>
      <trkpt lat="43.62042" lon="6.65343">
        <ele>351.1</ele>
        <time>2020-01-08T13:22:45Z</time>
      </trkpt>
      <trkpt lat="43.62037" lon="6.65342">
        <ele>351.1</ele>
        <time>2020-01-08T13:22:48Z</time>
      </trkpt>
      <trkpt lat="43.62031" lon="6.65339">
        <ele>351.1</ele>
        <time>2020-01-08T13:22:51Z</time>
      </trkpt>
      <trkpt lat="43.62027" lon="6.65335">
        <ele>351.3</ele>
        <time>2020-01-08T13:22:54Z</time>
      </trkpt>
      <trkpt lat="43.62023" lon="6.6533">
        <ele>351.5</ele>
        <time>2020-01-08T13:22:57Z</time>
      </trkpt>
      <trkpt lat="43.62018" lon="6.65328">
        <ele>351.9</ele>
        <time>2020-01-08T13:23:01Z</time>
      </trkpt>
      <trkpt lat="43.62013" lon="6.65326">
        <ele>352.4</ele>
        <time>2020-01-08T13:23:05Z</time>
      </trkpt>
      <trkpt lat="43.62008" lon="6.65323">
        <ele>353.1</ele>
        <time>2020-01-08T13:23:10Z</time>
      </trkpt>
      <trkpt lat="43.62004" lon="6.6532">
        <ele>353.8</ele>
        <time>2020-01-08T13:23:14Z</time>
      </trkpt>
      <trkpt lat="43.62" lon="6.65316">
        <ele>354.3</ele>
        <time>2020-01-08T13:23:18Z</time>
      </trkpt>
      <trkpt lat="43.61997" lon="6.65312">
        <ele>354.6</ele>
        <time>2020-01-08T13:23:21Z</time>
      </trkpt>
      <trkpt lat="43.61994" lon="6.65305">
        <ele>354.5</ele>
        <time>2020-01-08T13:23:25Z</time>
      </trkpt>
      <trkpt lat="43.61989" lon="6.65301">
        <ele>354.6</ele>
        <time>2020-01-08T13:23:28Z</time>
      </trkpt>
      <trkpt lat="43.61985" lon="6.65297">
        <ele>354.5</ele>
        <time>2020-01-08T13:23:31Z</time>
      </trkpt>
      <trkpt lat="43.61981" lon="6.65292">
        <ele>354</ele>
        <time>2020-01-08T13:23:35Z</time>
      </trkpt>
      <trkpt lat="43.61977" lon="6.65288">
        <ele>353.6</ele>
        <time>2020-01-08T13:23:41Z</time>
      </trkpt>
      <trkpt lat="43.61973" lon="6.65283">
        <ele>353.9</ele>
        <time>2020-01-08T13:23:45Z</time>
      </trkpt>
      <trkpt lat="43.61969" lon="6.65279">
        <ele>354.2</ele>
        <time>2020-01-08T13:23:48Z</time>
      </trkpt>
      <trkpt lat="43.61965" lon="6.65275">
        <ele>354.5</ele>
        <time>2020-01-08T13:23:52Z</time>
      </trkpt>
      <trkpt lat="43.61962" lon="6.65271">
        <ele>354.9</ele>
        <time>2020-01-08T13:23:57Z</time>
      </trkpt>
      <trkpt lat="43.61957" lon="6.65266">
        <ele>355.6</ele>
        <time>2020-01-08T13:24:02Z</time>
      </trkpt>
      <trkpt lat="43.61954" lon="6.65261">
        <ele>356.6</ele>
        <time>2020-01-08T13:24:08Z</time>
      </trkpt>
      <trkpt lat="43.6195" lon="6.65256">
        <ele>357.3</ele>
        <time>2020-01-08T13:24:13Z</time>
      </trkpt>
      <trkpt lat="43.61944" lon="6.65253">
        <ele>357.8</ele>
        <time>2020-01-08T13:24:16Z</time>
      </trkpt>
      <trkpt lat="43.61941" lon="6.65249">
        <ele>358.2</ele>
        <time>2020-01-08T13:24:19Z</time>
      </trkpt>
      <trkpt lat="43.61936" lon="6.65246">
        <ele>358.8</ele>
        <time>2020-01-08T13:24:22Z</time>
      </trkpt>
      <trkpt lat="43.61931" lon="6.65246">
        <ele>359.4</ele>
        <time>2020-01-08T13:24:25Z</time>
      </trkpt>
      <trkpt lat="43.61927" lon="6.65245">
        <ele>360.1</ele>
        <time>2020-01-08T13:24:29Z</time>
      </trkpt>
      <trkpt lat="43.61923" lon="6.65241">
        <ele>360.9</ele>
        <time>2020-01-08T13:24:33Z</time>
      </trkpt>
      <trkpt lat="43.6192" lon="6.65236">
        <ele>361.3</ele>
        <time>2020-01-08T13:24:36Z</time>
      </trkpt>
      <trkpt lat="43.61916" lon="6.6523">
        <ele>361.1</ele>
        <time>2020-01-08T13:24:39Z</time>
      </trkpt>
      <trkpt lat="43.61912" lon="6.65224">
        <ele>360.4</ele>
        <time>2020-01-08T13:24:42Z</time>
      </trkpt>
      <trkpt lat="43.61906" lon="6.65219">
        <ele>359.2</ele>
        <time>2020-01-08T13:24:45Z</time>
      </trkpt>
      <trkpt lat="43.619" lon="6.65216">
        <ele>357.9</ele>
        <time>2020-01-08T13:24:48Z</time>
      </trkpt>
      <trkpt lat="43.61895" lon="6.65212">
        <ele>356.6</ele>
        <time>2020-01-08T13:24:51Z</time>
      </trkpt>
      <trkpt lat="43.61891" lon="6.65208">
        <ele>354.9</ele>
        <time>2020-01-08T13:24:55Z</time>
      </trkpt>
      <trkpt lat="43.61889" lon="6.65201">
        <ele>353.2</ele>
        <time>2020-01-08T13:25:00Z</time>
      </trkpt>
      <trkpt lat="43.61888" lon="6.65194">
        <ele>352.3</ele>
        <time>2020-01-08T13:25:06Z</time>
      </trkpt>
      <trkpt lat="43.61887" lon="6.65188">
        <ele>352</ele>
        <time>2020-01-08T13:25:14Z</time>
      </trkpt>
      <trkpt lat="43.61883" lon="6.65184">
        <ele>352.5</ele>
        <time>2020-01-08T13:25:21Z</time>
      </trkpt>
      <trkpt lat="43.61881" lon="6.65178">
        <ele>352.4</ele>
        <time>2020-01-08T13:25:28Z</time>
      </trkpt>
      <trkpt lat="43.61876" lon="6.65176">
        <ele>352.5</ele>
        <time>2020-01-08T13:25:32Z</time>
      </trkpt>
      <trkpt lat="43.61871" lon="6.65174">
        <ele>352.6</ele>
        <time>2020-01-08T13:25:35Z</time>
      </trkpt>
      <trkpt lat="43.61866" lon="6.65173">
        <ele>352.8</ele>
        <time>2020-01-08T13:25:38Z</time>
      </trkpt>
      <trkpt lat="43.6186" lon="6.65169">
        <ele>353.2</ele>
        <time>2020-01-08T13:25:42Z</time>
      </trkpt>
      <trkpt lat="43.61856" lon="6.65163">
        <ele>353.7</ele>
        <time>2020-01-08T13:25:45Z</time>
      </trkpt>
      <trkpt lat="43.61853" lon="6.65157">
        <ele>354.1</ele>
        <time>2020-01-08T13:25:49Z</time>
      </trkpt>
      <trkpt lat="43.61849" lon="6.65153">
        <ele>354.5</ele>
        <time>2020-01-08T13:25:53Z</time>
      </trkpt>
      <trkpt lat="43.61846" lon="6.65148">
        <ele>354.8</ele>
        <time>2020-01-08T13:25:57Z</time>
      </trkpt>
      <trkpt lat="43.61842" lon="6.65143">
        <ele>355.2</ele>
        <time>2020-01-08T13:26:01Z</time>
      </trkpt>
      <trkpt lat="43.61838" lon="6.65139">
        <ele>355.6</ele>
        <time>2020-01-08T13:26:04Z</time>
      </trkpt>
      <trkpt lat="43.61834" lon="6.65134">
        <ele>356.2</ele>
        <time>2020-01-08T13:26:08Z</time>
      </trkpt>
      <trkpt lat="43.61832" lon="6.65128">
        <ele>357.4</ele>
        <time>2020-01-08T13:26:14Z</time>
      </trkpt>
      <trkpt lat="43.61828" lon="6.65123">
        <ele>358.4</ele>
        <time>2020-01-08T13:26:20Z</time>
      </trkpt>
      <trkpt lat="43.61824" lon="6.6512">
        <ele>359</ele>
        <time>2020-01-08T13:26:24Z</time>
      </trkpt>
      <trkpt lat="43.61821" lon="6.65115">
        <ele>359.5</ele>
        <time>2020-01-08T13:26:27Z</time>
      </trkpt>
      <trkpt lat="43.61816" lon="6.65108">
        <ele>360.2</ele>
        <time>2020-01-08T13:26:30Z</time>
      </trkpt>
      <trkpt lat="43.61812" lon="6.65102">
        <ele>360.9</ele>
        <time>2020-01-08T13:26:33Z</time>
      </trkpt>
      <trkpt lat="43.61809" lon="6.65096">
        <ele>361.6</ele>
        <time>2020-01-08T13:26:36Z</time>
      </trkpt>
      <trkpt lat="43.61806" lon="6.65091">
        <ele>362.4</ele>
        <time>2020-01-08T13:26:39Z</time>
      </trkpt>
      <trkpt lat="43.61805" lon="6.65084">
        <ele>363.6</ele>
        <time>2020-01-08T13:26:43Z</time>
      </trkpt>
      <trkpt lat="43.61801" lon="6.6508">
        <ele>365.1</ele>
        <time>2020-01-08T13:26:48Z</time>
      </trkpt>
      <trkpt lat="43.61798" lon="6.65073">
        <ele>367</ele>
        <time>2020-01-08T13:26:53Z</time>
      </trkpt>
      <trkpt lat="43.61795" lon="6.65069">
        <ele>368.1</ele>
        <time>2020-01-08T13:26:56Z</time>
      </trkpt>
      <trkpt lat="43.6179" lon="6.65064">
        <ele>369.2</ele>
        <time>2020-01-08T13:26:59Z</time>
      </trkpt>
      <trkpt lat="43.61787" lon="6.65059">
        <ele>370.3</ele>
        <time>2020-01-08T13:27:02Z</time>
      </trkpt>
      <trkpt lat="43.61783" lon="6.65054">
        <ele>371.3</ele>
        <time>2020-01-08T13:27:05Z</time>
      </trkpt>
      <trkpt lat="43.61778" lon="6.6505">
        <ele>372.1</ele>
        <time>2020-01-08T13:27:08Z</time>
      </trkpt>
      <trkpt lat="43.61773" lon="6.65046">
        <ele>372.8</ele>
        <time>2020-01-08T13:27:11Z</time>
      </trkpt>
      <trkpt lat="43.61767" lon="6.65042">
        <ele>373.4</ele>
        <time>2020-01-08T13:27:14Z</time>
      </trkpt>
      <trkpt lat="43.61763" lon="6.65038">
        <ele>374.2</ele>
        <time>2020-01-08T13:27:17Z</time>
      </trkpt>
      <trkpt lat="43.61759" lon="6.65034">
        <ele>375.4</ele>
        <time>2020-01-08T13:27:21Z</time>
      </trkpt>
      <trkpt lat="43.61756" lon="6.65029">
        <ele>376.2</ele>
        <time>2020-01-08T13:27:24Z</time>
      </trkpt>
      <trkpt lat="43.61754" lon="6.65022">
        <ele>376.9</ele>
        <time>2020-01-08T13:27:27Z</time>
      </trkpt>
      <trkpt lat="43.6175" lon="6.65017">
        <ele>377.5</ele>
        <time>2020-01-08T13:27:30Z</time>
      </trkpt>
      <trkpt lat="43.61747" lon="6.65012">
        <ele>378.2</ele>
        <time>2020-01-08T13:27:33Z</time>
      </trkpt>
      <trkpt lat="43.61745" lon="6.65006">
        <ele>378.7</ele>
        <time>2020-01-08T13:27:36Z</time>
      </trkpt>
      <trkpt lat="43.61743" lon="6.64999">
        <ele>379</ele>
        <time>2020-01-08T13:27:39Z</time>
      </trkpt>
      <trkpt lat="43.6174" lon="6.64992">
        <ele>379.2</ele>
        <time>2020-01-08T13:27:43Z</time>
      </trkpt>
      <trkpt lat="43.61738" lon="6.64985">
        <ele>378.9</ele>
        <time>2020-01-08T13:27:47Z</time>
      </trkpt>
      <trkpt lat="43.61737" lon="6.64978">
        <ele>378.7</ele>
        <time>2020-01-08T13:27:51Z</time>
      </trkpt>
      <trkpt lat="43.61737" lon="6.6497">
        <ele>378.6</ele>
        <time>2020-01-08T13:27:54Z</time>
      </trkpt>
      <trkpt lat="43.61736" lon="6.64964">
        <ele>378.3</ele>
        <time>2020-01-08T13:27:58Z</time>
      </trkpt>
      <trkpt lat="43.61735" lon="6.64958">
        <ele>377.9</ele>
        <time>2020-01-08T13:28:04Z</time>
      </trkpt>
      <trkpt lat="43.61731" lon="6.64954">
        <ele>377.7</ele>
        <time>2020-01-08T13:28:12Z</time>
      </trkpt>
      <trkpt lat="43.61726" lon="6.64952">
        <ele>377.8</ele>
        <time>2020-01-08T13:28:19Z</time>
      </trkpt>
      <trkpt lat="43.61724" lon="6.64944">
        <ele>378</ele>
        <time>2020-01-08T13:28:25Z</time>
      </trkpt>
      <trkpt lat="43.61723" lon="6.64936">
        <ele>377.3</ele>
        <time>2020-01-08T13:28:28Z</time>
      </trkpt>
      <trkpt lat="43.61724" lon="6.64927">
        <ele>376.4</ele>
        <time>2020-01-08T13:28:31Z</time>
      </trkpt>
      <trkpt lat="43.61724" lon="6.6492">
        <ele>375.4</ele>
        <time>2020-01-08T13:28:34Z</time>
      </trkpt>
      <trkpt lat="43.61724" lon="6.64914">
        <ele>374.5</ele>
        <time>2020-01-08T13:28:37Z</time>
      </trkpt>
      <trkpt lat="43.61722" lon="6.64907">
        <ele>373.7</ele>
        <time>2020-01-08T13:28:40Z</time>
      </trkpt>
      <trkpt lat="43.6172" lon="6.64902">
        <ele>373.2</ele>
        <time>2020-01-08T13:28:44Z</time>
      </trkpt>
      <trkpt lat="43.61717" lon="6.64895">
        <ele>373.2</ele>
        <time>2020-01-08T13:28:51Z</time>
      </trkpt>
      <trkpt lat="43.61714" lon="6.6489">
        <ele>373.6</ele>
        <time>2020-01-08T13:28:56Z</time>
      </trkpt>
      <trkpt lat="43.61712" lon="6.64884">
        <ele>374.1</ele>
        <time>2020-01-08T13:29:00Z</time>
      </trkpt>
      <trkpt lat="43.6171" lon="6.64877">
        <ele>374.9</ele>
        <time>2020-01-08T13:29:05Z</time>
      </trkpt>
      <trkpt lat="43.61708" lon="6.64871">
        <ele>375.7</ele>
        <time>2020-01-08T13:29:10Z</time>
      </trkpt>
      <trkpt lat="43.61706" lon="6.64861">
        <ele>375.9</ele>
        <time>2020-01-08T13:29:13Z</time>
      </trkpt>
      <trkpt lat="43.61704" lon="6.64854">
        <ele>375.9</ele>
        <time>2020-01-08T13:29:16Z</time>
      </trkpt>
      <trkpt lat="43.61701" lon="6.64847">
        <ele>375.9</ele>
        <time>2020-01-08T13:29:19Z</time>
      </trkpt>
      <trkpt lat="43.61697" lon="6.64839">
        <ele>375.8</ele>
        <time>2020-01-08T13:29:22Z</time>
      </trkpt>
      <trkpt lat="43.61694" lon="6.64831">
        <ele>375.6</ele>
        <time>2020-01-08T13:29:25Z</time>
      </trkpt>
      <trkpt lat="43.61692" lon="6.64825">
        <ele>375.5</ele>
        <time>2020-01-08T13:29:28Z</time>
      </trkpt>
      <trkpt lat="43.61689" lon="6.64819">
        <ele>375.4</ele>
        <time>2020-01-08T13:29:32Z</time>
      </trkpt>
      <trkpt lat="43.61685" lon="6.64815">
        <ele>375.4</ele>
        <time>2020-01-08T13:29:36Z</time>
      </trkpt>
      <trkpt lat="43.61684" lon="6.64809">
        <ele>375.5</ele>
        <time>2020-01-08T13:29:41Z</time>
      </trkpt>
      <trkpt lat="43.61683" lon="6.64803">
        <ele>375.5</ele>
        <time>2020-01-08T13:29:45Z</time>
      </trkpt>
      <trkpt lat="43.61682" lon="6.64795">
        <ele>375.5</ele>
        <time>2020-01-08T13:29:50Z</time>
      </trkpt>
      <trkpt lat="43.61678" lon="6.6479">
        <ele>375.3</ele>
        <time>2020-01-08T13:29:54Z</time>
      </trkpt>
      <trkpt lat="43.61673" lon="6.64783">
        <ele>374.7</ele>
        <time>2020-01-08T13:29:57Z</time>
      </trkpt>
      <trkpt lat="43.61666" lon="6.64777">
        <ele>374</ele>
        <time>2020-01-08T13:30:00Z</time>
      </trkpt>
      <trkpt lat="43.61663" lon="6.64772">
        <ele>373.6</ele>
        <time>2020-01-08T13:30:03Z</time>
      </trkpt>
      <trkpt lat="43.6166" lon="6.64766">
        <ele>373</ele>
        <time>2020-01-08T13:30:08Z</time>
      </trkpt>
      <trkpt lat="43.61657" lon="6.64759">
        <ele>372.4</ele>
        <time>2020-01-08T13:30:13Z</time>
      </trkpt>
      <trkpt lat="43.61655" lon="6.64752">
        <ele>372</ele>
        <time>2020-01-08T13:30:18Z</time>
      </trkpt>
      <trkpt lat="43.61654" lon="6.64746">
        <ele>371.5</ele>
        <time>2020-01-08T13:30:23Z</time>
      </trkpt>
      <trkpt lat="43.61652" lon="6.64739">
        <ele>371.4</ele>
        <time>2020-01-08T13:30:27Z</time>
      </trkpt>
      <trkpt lat="43.61649" lon="6.64733">
        <ele>371.1</ele>
        <time>2020-01-08T13:30:30Z</time>
      </trkpt>
      <trkpt lat="43.61644" lon="6.64727">
        <ele>370.5</ele>
        <time>2020-01-08T13:30:33Z</time>
      </trkpt>
      <trkpt lat="43.61644" lon="6.64719">
        <ele>369.7</ele>
        <time>2020-01-08T13:30:37Z</time>
      </trkpt>
      <trkpt lat="43.6164" lon="6.64715">
        <ele>368.7</ele>
        <time>2020-01-08T13:30:42Z</time>
      </trkpt>
      <trkpt lat="43.61626" lon="6.64713">
        <ele>366.8</ele>
        <time>2020-01-08T13:31:03Z</time>
      </trkpt>
      <trkpt lat="43.61626" lon="6.64713">
        <ele>366.8</ele>
        <time>2020-01-08T13:31:03Z</time>
      </trkpt>
      <trkpt lat="43.61621" lon="6.64713">
        <ele>366.4</ele>
        <time>2020-01-08T13:31:06Z</time>
      </trkpt>
      <trkpt lat="43.61616" lon="6.64711">
        <ele>366.1</ele>
        <time>2020-01-08T13:31:09Z</time>
      </trkpt>
      <trkpt lat="43.61612" lon="6.6471">
        <ele>365.7</ele>
        <time>2020-01-08T13:31:13Z</time>
      </trkpt>
      <trkpt lat="43.61607" lon="6.64707">
        <ele>365.1</ele>
        <time>2020-01-08T13:31:19Z</time>
      </trkpt>
      <trkpt lat="43.61604" lon="6.64702">
        <ele>364.3</ele>
        <time>2020-01-08T13:31:29Z</time>
      </trkpt>
      <trkpt lat="43.61598" lon="6.647">
        <ele>364.1</ele>
        <time>2020-01-08T13:31:35Z</time>
      </trkpt>
      <trkpt lat="43.61594" lon="6.64699">
        <ele>364.2</ele>
        <time>2020-01-08T13:31:40Z</time>
      </trkpt>
      <trkpt lat="43.61588" lon="6.64699">
        <ele>364.8</ele>
        <time>2020-01-08T13:31:46Z</time>
      </trkpt>
      <trkpt lat="43.61581" lon="6.64701">
        <ele>365.3</ele>
        <time>2020-01-08T13:31:49Z</time>
      </trkpt>
      <trkpt lat="43.61576" lon="6.64703">
        <ele>366</ele>
        <time>2020-01-08T13:31:53Z</time>
      </trkpt>
      <trkpt lat="43.61572" lon="6.64705">
        <ele>366.6</ele>
        <time>2020-01-08T13:31:56Z</time>
      </trkpt>
      <trkpt lat="43.61565" lon="6.64706">
        <ele>367.2</ele>
        <time>2020-01-08T13:31:59Z</time>
      </trkpt>
      <trkpt lat="43.6156" lon="6.64707">
        <ele>367.9</ele>
        <time>2020-01-08T13:32:02Z</time>
      </trkpt>
      <trkpt lat="43.61556" lon="6.64712">
        <ele>368.9</ele>
        <time>2020-01-08T13:32:07Z</time>
      </trkpt>
      <trkpt lat="43.61553" lon="6.64717">
        <ele>369.8</ele>
        <time>2020-01-08T13:32:10Z</time>
      </trkpt>
      <trkpt lat="43.6155" lon="6.64723">
        <ele>371</ele>
        <time>2020-01-08T13:32:13Z</time>
      </trkpt>
      <trkpt lat="43.61547" lon="6.6473">
        <ele>372.1</ele>
        <time>2020-01-08T13:32:16Z</time>
      </trkpt>
      <trkpt lat="43.61544" lon="6.64735">
        <ele>373.3</ele>
        <time>2020-01-08T13:32:19Z</time>
      </trkpt>
      <trkpt lat="43.61542" lon="6.6474">
        <ele>374.4</ele>
        <time>2020-01-08T13:32:22Z</time>
      </trkpt>
      <trkpt lat="43.6154" lon="6.64747">
        <ele>375.8</ele>
        <time>2020-01-08T13:32:26Z</time>
      </trkpt>
      <trkpt lat="43.61538" lon="6.64752">
        <ele>376.7</ele>
        <time>2020-01-08T13:32:29Z</time>
      </trkpt>
      <trkpt lat="43.61535" lon="6.64758">
        <ele>377.4</ele>
        <time>2020-01-08T13:32:32Z</time>
      </trkpt>
      <trkpt lat="43.61532" lon="6.64763">
        <ele>378.1</ele>
        <time>2020-01-08T13:32:38Z</time>
      </trkpt>
      <trkpt lat="43.61529" lon="6.64768">
        <ele>378.4</ele>
        <time>2020-01-08T13:32:42Z</time>
      </trkpt>
      <trkpt lat="43.61527" lon="6.64776">
        <ele>377.9</ele>
        <time>2020-01-08T13:32:47Z</time>
      </trkpt>
      <trkpt lat="43.61524" lon="6.64782">
        <ele>377.4</ele>
        <time>2020-01-08T13:32:51Z</time>
      </trkpt>
      <trkpt lat="43.61521" lon="6.64789">
        <ele>377.4</ele>
        <time>2020-01-08T13:32:55Z</time>
      </trkpt>
      <trkpt lat="43.6152" lon="6.64795">
        <ele>377.8</ele>
        <time>2020-01-08T13:32:59Z</time>
      </trkpt>
      <trkpt lat="43.61519" lon="6.64802">
        <ele>378.1</ele>
        <time>2020-01-08T13:33:05Z</time>
      </trkpt>
      <trkpt lat="43.61515" lon="6.64808">
        <ele>378.2</ele>
        <time>2020-01-08T13:33:08Z</time>
      </trkpt>
      <trkpt lat="43.61513" lon="6.64813">
        <ele>378.5</ele>
        <time>2020-01-08T13:33:12Z</time>
      </trkpt>
      <trkpt lat="43.61511" lon="6.6482">
        <ele>378.6</ele>
        <time>2020-01-08T13:33:19Z</time>
      </trkpt>
      <trkpt lat="43.61507" lon="6.64827">
        <ele>378.7</ele>
        <time>2020-01-08T13:33:24Z</time>
      </trkpt>
      <trkpt lat="43.61505" lon="6.64833">
        <ele>378.4</ele>
        <time>2020-01-08T13:33:27Z</time>
      </trkpt>
      <trkpt lat="43.61504" lon="6.6484">
        <ele>377.9</ele>
        <time>2020-01-08T13:33:31Z</time>
      </trkpt>
      <trkpt lat="43.61501" lon="6.64847">
        <ele>377.2</ele>
        <time>2020-01-08T13:33:35Z</time>
      </trkpt>
      <trkpt lat="43.61498" lon="6.64852">
        <ele>376.4</ele>
        <time>2020-01-08T13:33:39Z</time>
      </trkpt>
      <trkpt lat="43.61496" lon="6.64859">
        <ele>375.7</ele>
        <time>2020-01-08T13:33:43Z</time>
      </trkpt>
      <trkpt lat="43.61496" lon="6.64867">
        <ele>374.5</ele>
        <time>2020-01-08T13:33:46Z</time>
      </trkpt>
      <trkpt lat="43.61493" lon="6.64872">
        <ele>373.2</ele>
        <time>2020-01-08T13:33:50Z</time>
      </trkpt>
      <trkpt lat="43.61489" lon="6.64878">
        <ele>372.5</ele>
        <time>2020-01-08T13:33:56Z</time>
      </trkpt>
      <trkpt lat="43.61484" lon="6.64881">
        <ele>372.4</ele>
        <time>2020-01-08T13:33:59Z</time>
      </trkpt>
      <trkpt lat="43.61478" lon="6.64882">
        <ele>372.5</ele>
        <time>2020-01-08T13:34:02Z</time>
      </trkpt>
      <trkpt lat="43.61473" lon="6.64884">
        <ele>372.6</ele>
        <time>2020-01-08T13:34:05Z</time>
      </trkpt>
      <trkpt lat="43.61468" lon="6.64887">
        <ele>372.7</ele>
        <time>2020-01-08T13:34:09Z</time>
      </trkpt>
      <trkpt lat="43.61464" lon="6.6489">
        <ele>372.7</ele>
        <time>2020-01-08T13:34:14Z</time>
      </trkpt>
      <trkpt lat="43.61461" lon="6.64895">
        <ele>372.7</ele>
        <time>2020-01-08T13:34:18Z</time>
      </trkpt>
      <trkpt lat="43.61456" lon="6.64899">
        <ele>373.2</ele>
        <time>2020-01-08T13:34:22Z</time>
      </trkpt>
      <trkpt lat="43.61452" lon="6.64903">
        <ele>373.2</ele>
        <time>2020-01-08T13:34:28Z</time>
      </trkpt>
      <trkpt lat="43.61447" lon="6.64905">
        <ele>372.8</ele>
        <time>2020-01-08T13:34:33Z</time>
      </trkpt>
      <trkpt lat="43.61442" lon="6.64909">
        <ele>372.3</ele>
        <time>2020-01-08T13:34:37Z</time>
      </trkpt>
      <trkpt lat="43.61436" lon="6.64914">
        <ele>371.1</ele>
        <time>2020-01-08T13:34:40Z</time>
      </trkpt>
      <trkpt lat="43.61431" lon="6.64915">
        <ele>369.8</ele>
        <time>2020-01-08T13:34:43Z</time>
      </trkpt>
      <trkpt lat="43.61426" lon="6.64917">
        <ele>368.7</ele>
        <time>2020-01-08T13:34:46Z</time>
      </trkpt>
      <trkpt lat="43.61421" lon="6.64919">
        <ele>367.8</ele>
        <time>2020-01-08T13:34:49Z</time>
      </trkpt>
      <trkpt lat="43.61415" lon="6.6492">
        <ele>366.9</ele>
        <time>2020-01-08T13:34:52Z</time>
      </trkpt>
      <trkpt lat="43.61411" lon="6.64923">
        <ele>365.9</ele>
        <time>2020-01-08T13:34:56Z</time>
      </trkpt>
      <trkpt lat="43.61406" lon="6.64925">
        <ele>365.1</ele>
        <time>2020-01-08T13:35:00Z</time>
      </trkpt>
      <trkpt lat="43.61401" lon="6.64927">
        <ele>364.7</ele>
        <time>2020-01-08T13:35:04Z</time>
      </trkpt>
      <trkpt lat="43.61396" lon="6.64929">
        <ele>365</ele>
        <time>2020-01-08T13:35:10Z</time>
      </trkpt>
      <trkpt lat="43.61391" lon="6.64931">
        <ele>364.9</ele>
        <time>2020-01-08T13:35:14Z</time>
      </trkpt>
      <trkpt lat="43.61384" lon="6.64933">
        <ele>364.8</ele>
        <time>2020-01-08T13:35:17Z</time>
      </trkpt>
      <trkpt lat="43.61376" lon="6.64936">
        <ele>364.7</ele>
        <time>2020-01-08T13:35:20Z</time>
      </trkpt>
      <trkpt lat="43.61371" lon="6.64939">
        <ele>364.9</ele>
        <time>2020-01-08T13:35:25Z</time>
      </trkpt>
      <trkpt lat="43.61366" lon="6.64941">
        <ele>365.1</ele>
        <time>2020-01-08T13:35:29Z</time>
      </trkpt>
      <trkpt lat="43.61361" lon="6.64942">
        <ele>365.3</ele>
        <time>2020-01-08T13:35:34Z</time>
      </trkpt>
      <trkpt lat="43.61357" lon="6.64945">
        <ele>365.5</ele>
        <time>2020-01-08T13:35:38Z</time>
      </trkpt>
      <trkpt lat="43.61352" lon="6.64946">
        <ele>365.6</ele>
        <time>2020-01-08T13:35:42Z</time>
      </trkpt>
      <trkpt lat="43.61347" lon="6.64948">
        <ele>365.7</ele>
        <time>2020-01-08T13:35:45Z</time>
      </trkpt>
      <trkpt lat="43.61342" lon="6.6495">
        <ele>365.6</ele>
        <time>2020-01-08T13:35:48Z</time>
      </trkpt>
      <trkpt lat="43.61338" lon="6.64955">
        <ele>365.4</ele>
        <time>2020-01-08T13:35:51Z</time>
      </trkpt>
      <trkpt lat="43.61333" lon="6.64959">
        <ele>363.9</ele>
        <time>2020-01-08T13:35:55Z</time>
      </trkpt>
      <trkpt lat="43.61327" lon="6.64961">
        <ele>362.5</ele>
        <time>2020-01-08T13:35:58Z</time>
      </trkpt>
      <trkpt lat="43.61323" lon="6.64963">
        <ele>360.9</ele>
        <time>2020-01-08T13:36:02Z</time>
      </trkpt>
      <trkpt lat="43.61319" lon="6.64967">
        <ele>359.3</ele>
        <time>2020-01-08T13:36:09Z</time>
      </trkpt>
      <trkpt lat="43.61314" lon="6.64969">
        <ele>358.9</ele>
        <time>2020-01-08T13:36:16Z</time>
      </trkpt>
      <trkpt lat="43.61309" lon="6.6497">
        <ele>358.7</ele>
        <time>2020-01-08T13:36:20Z</time>
      </trkpt>
      <trkpt lat="43.61305" lon="6.6497">
        <ele>358.7</ele>
        <time>2020-01-08T13:36:23Z</time>
      </trkpt>
      <trkpt lat="43.613" lon="6.64973">
        <ele>358.4</ele>
        <time>2020-01-08T13:36:26Z</time>
      </trkpt>
      <trkpt lat="43.61294" lon="6.64976">
        <ele>358.3</ele>
        <time>2020-01-08T13:36:30Z</time>
      </trkpt>
      <trkpt lat="43.6129" lon="6.64982">
        <ele>358.3</ele>
        <time>2020-01-08T13:36:34Z</time>
      </trkpt>
      <trkpt lat="43.61287" lon="6.64988">
        <ele>358.3</ele>
        <time>2020-01-08T13:36:37Z</time>
      </trkpt>
      <trkpt lat="43.61284" lon="6.64994">
        <ele>358.5</ele>
        <time>2020-01-08T13:36:41Z</time>
      </trkpt>
      <trkpt lat="43.61278" lon="6.65">
        <ele>358.7</ele>
        <time>2020-01-08T13:36:44Z</time>
      </trkpt>
      <trkpt lat="43.61276" lon="6.65008">
        <ele>359</ele>
        <time>2020-01-08T13:36:47Z</time>
      </trkpt>
      <trkpt lat="43.61277" lon="6.65016">
        <ele>359.3</ele>
        <time>2020-01-08T13:36:51Z</time>
      </trkpt>
      <trkpt lat="43.61278" lon="6.65023">
        <ele>359.5</ele>
        <time>2020-01-08T13:36:55Z</time>
      </trkpt>
      <trkpt lat="43.61278" lon="6.6503">
        <ele>359.9</ele>
        <time>2020-01-08T13:36:59Z</time>
      </trkpt>
      <trkpt lat="43.61277" lon="6.65037">
        <ele>360.2</ele>
        <time>2020-01-08T13:37:03Z</time>
      </trkpt>
      <trkpt lat="43.61276" lon="6.65044">
        <ele>360.2</ele>
        <time>2020-01-08T13:37:06Z</time>
      </trkpt>
      <trkpt lat="43.61274" lon="6.65052">
        <ele>360.3</ele>
        <time>2020-01-08T13:37:09Z</time>
      </trkpt>
      <trkpt lat="43.61273" lon="6.65059">
        <ele>360.6</ele>
        <time>2020-01-08T13:37:12Z</time>
      </trkpt>
      <trkpt lat="43.61273" lon="6.65066">
        <ele>360.9</ele>
        <time>2020-01-08T13:37:15Z</time>
      </trkpt>
      <trkpt lat="43.61273" lon="6.65073">
        <ele>361.4</ele>
        <time>2020-01-08T13:37:19Z</time>
      </trkpt>
      <trkpt lat="43.61273" lon="6.6508">
        <ele>361.9</ele>
        <time>2020-01-08T13:37:23Z</time>
      </trkpt>
      <trkpt lat="43.61275" lon="6.65086">
        <ele>362.1</ele>
        <time>2020-01-08T13:37:26Z</time>
      </trkpt>
      <trkpt lat="43.61278" lon="6.65093">
        <ele>362</ele>
        <time>2020-01-08T13:37:29Z</time>
      </trkpt>
      <trkpt lat="43.6128" lon="6.65101">
        <ele>361.6</ele>
        <time>2020-01-08T13:37:32Z</time>
      </trkpt>
      <trkpt lat="43.61281" lon="6.65107">
        <ele>361.1</ele>
        <time>2020-01-08T13:37:35Z</time>
      </trkpt>
      <trkpt lat="43.61282" lon="6.65114">
        <ele>360.5</ele>
        <time>2020-01-08T13:37:38Z</time>
      </trkpt>
      <trkpt lat="43.61283" lon="6.65122">
        <ele>359.6</ele>
        <time>2020-01-08T13:37:42Z</time>
      </trkpt>
      <trkpt lat="43.61284" lon="6.65129">
        <ele>358.5</ele>
        <time>2020-01-08T13:37:47Z</time>
      </trkpt>
      <trkpt lat="43.61286" lon="6.65136">
        <ele>357.9</ele>
        <time>2020-01-08T13:37:50Z</time>
      </trkpt>
      <trkpt lat="43.6129" lon="6.65144">
        <ele>357.2</ele>
        <time>2020-01-08T13:37:53Z</time>
      </trkpt>
      <trkpt lat="43.61293" lon="6.65151">
        <ele>356.3</ele>
        <time>2020-01-08T13:37:56Z</time>
      </trkpt>
      <trkpt lat="43.61296" lon="6.65157">
        <ele>355.2</ele>
        <time>2020-01-08T13:37:59Z</time>
      </trkpt>
      <trkpt lat="43.61299" lon="6.65162">
        <ele>353.8</ele>
        <time>2020-01-08T13:38:03Z</time>
      </trkpt>
      <trkpt lat="43.61304" lon="6.65167">
        <ele>352.8</ele>
        <time>2020-01-08T13:38:07Z</time>
      </trkpt>
      <trkpt lat="43.61309" lon="6.65169">
        <ele>352.2</ele>
        <time>2020-01-08T13:38:11Z</time>
      </trkpt>
      <trkpt lat="43.61315" lon="6.65171">
        <ele>351.9</ele>
        <time>2020-01-08T13:38:15Z</time>
      </trkpt>
      <trkpt lat="43.6132" lon="6.65172">
        <ele>351.7</ele>
        <time>2020-01-08T13:38:19Z</time>
      </trkpt>
      <trkpt lat="43.61325" lon="6.65174">
        <ele>351.8</ele>
        <time>2020-01-08T13:38:23Z</time>
      </trkpt>
      <trkpt lat="43.61331" lon="6.65175">
        <ele>352</ele>
        <time>2020-01-08T13:38:27Z</time>
      </trkpt>
      <trkpt lat="43.61336" lon="6.65176">
        <ele>352.3</ele>
        <time>2020-01-08T13:38:31Z</time>
      </trkpt>
      <trkpt lat="43.6134" lon="6.6518">
        <ele>353.1</ele>
        <time>2020-01-08T13:38:37Z</time>
      </trkpt>
      <trkpt lat="43.61345" lon="6.65182">
        <ele>353.9</ele>
        <time>2020-01-08T13:38:43Z</time>
      </trkpt>
      <trkpt lat="43.61348" lon="6.65187">
        <ele>354.4</ele>
        <time>2020-01-08T13:38:47Z</time>
      </trkpt>
      <trkpt lat="43.61353" lon="6.65191">
        <ele>355</ele>
        <time>2020-01-08T13:38:51Z</time>
      </trkpt>
      <trkpt lat="43.61357" lon="6.65194">
        <ele>355.5</ele>
        <time>2020-01-08T13:38:55Z</time>
      </trkpt>
      <trkpt lat="43.61362" lon="6.65199">
        <ele>356.2</ele>
        <time>2020-01-08T13:38:59Z</time>
      </trkpt>
      <trkpt lat="43.61366" lon="6.65203">
        <ele>356.3</ele>
        <time>2020-01-08T13:39:02Z</time>
      </trkpt>
      <trkpt lat="43.61371" lon="6.65206">
        <ele>356.2</ele>
        <time>2020-01-08T13:39:05Z</time>
      </trkpt>
      <trkpt lat="43.61375" lon="6.6521">
        <ele>356.3</ele>
        <time>2020-01-08T13:39:09Z</time>
      </trkpt>
      <trkpt lat="43.61379" lon="6.65216">
        <ele>356.3</ele>
        <time>2020-01-08T13:39:12Z</time>
      </trkpt>
      <trkpt lat="43.61384" lon="6.65223">
        <ele>356</ele>
        <time>2020-01-08T13:39:15Z</time>
      </trkpt>
      <trkpt lat="43.61388" lon="6.65227">
        <ele>355.5</ele>
        <time>2020-01-08T13:39:18Z</time>
      </trkpt>
      <trkpt lat="43.61393" lon="6.6523">
        <ele>354.7</ele>
        <time>2020-01-08T13:39:21Z</time>
      </trkpt>
      <trkpt lat="43.61398" lon="6.65233">
        <ele>354</ele>
        <time>2020-01-08T13:39:24Z</time>
      </trkpt>
      <trkpt lat="43.61402" lon="6.65235">
        <ele>353.6</ele>
        <time>2020-01-08T13:39:27Z</time>
      </trkpt>
      <trkpt lat="43.61407" lon="6.65236">
        <ele>353.4</ele>
        <time>2020-01-08T13:39:30Z</time>
      </trkpt>
      <trkpt lat="43.61412" lon="6.65237">
        <ele>353.4</ele>
        <time>2020-01-08T13:39:33Z</time>
      </trkpt>
      <trkpt lat="43.61417" lon="6.65238">
        <ele>353.7</ele>
        <time>2020-01-08T13:39:37Z</time>
      </trkpt>
      <trkpt lat="43.61423" lon="6.6524">
        <ele>354.1</ele>
        <time>2020-01-08T13:39:41Z</time>
      </trkpt>
      <trkpt lat="43.61427" lon="6.65241">
        <ele>354.7</ele>
        <time>2020-01-08T13:39:45Z</time>
      </trkpt>
      <trkpt lat="43.61432" lon="6.65242">
        <ele>355.4</ele>
        <time>2020-01-08T13:39:49Z</time>
      </trkpt>
      <trkpt lat="43.61438" lon="6.65242">
        <ele>355.9</ele>
        <time>2020-01-08T13:39:53Z</time>
      </trkpt>
      <trkpt lat="43.61442" lon="6.65241">
        <ele>356.1</ele>
        <time>2020-01-08T13:39:56Z</time>
      </trkpt>
      <trkpt lat="43.61448" lon="6.65241">
        <ele>356.4</ele>
        <time>2020-01-08T13:40:00Z</time>
      </trkpt>
      <trkpt lat="43.61453" lon="6.65239">
        <ele>356.3</ele>
        <time>2020-01-08T13:40:03Z</time>
      </trkpt>
      <trkpt lat="43.61459" lon="6.65238">
        <ele>356.1</ele>
        <time>2020-01-08T13:40:06Z</time>
      </trkpt>
      <trkpt lat="43.61464" lon="6.65236">
        <ele>355.9</ele>
        <time>2020-01-08T13:40:09Z</time>
      </trkpt>
      <trkpt lat="43.61471" lon="6.65235">
        <ele>355.4</ele>
        <time>2020-01-08T13:40:12Z</time>
      </trkpt>
      <trkpt lat="43.61476" lon="6.65234">
        <ele>354.2</ele>
        <time>2020-01-08T13:40:15Z</time>
      </trkpt>
      <trkpt lat="43.61481" lon="6.65232">
        <ele>353.1</ele>
        <time>2020-01-08T13:40:18Z</time>
      </trkpt>
      <trkpt lat="43.61486" lon="6.65231">
        <ele>351.3</ele>
        <time>2020-01-08T13:40:21Z</time>
      </trkpt>
      <trkpt lat="43.61491" lon="6.6523">
        <ele>349.6</ele>
        <time>2020-01-08T13:40:25Z</time>
      </trkpt>
      <trkpt lat="43.61496" lon="6.65229">
        <ele>348.1</ele>
        <time>2020-01-08T13:40:30Z</time>
      </trkpt>
      <trkpt lat="43.61501" lon="6.6523">
        <ele>346.6</ele>
        <time>2020-01-08T13:40:36Z</time>
      </trkpt>
      <trkpt lat="43.61506" lon="6.65231">
        <ele>345.9</ele>
        <time>2020-01-08T13:40:40Z</time>
      </trkpt>
      <trkpt lat="43.61511" lon="6.65229">
        <ele>345.4</ele>
        <time>2020-01-08T13:40:44Z</time>
      </trkpt>
      <trkpt lat="43.61515" lon="6.65228">
        <ele>344.9</ele>
        <time>2020-01-08T13:40:48Z</time>
      </trkpt>
      <trkpt lat="43.6152" lon="6.65226">
        <ele>344.7</ele>
        <time>2020-01-08T13:40:51Z</time>
      </trkpt>
      <trkpt lat="43.61524" lon="6.65224">
        <ele>344.5</ele>
        <time>2020-01-08T13:40:55Z</time>
      </trkpt>
      <trkpt lat="43.6153" lon="6.65223">
        <ele>344.6</ele>
        <time>2020-01-08T13:41:00Z</time>
      </trkpt>
      <trkpt lat="43.61535" lon="6.65223">
        <ele>345</ele>
        <time>2020-01-08T13:41:05Z</time>
      </trkpt>
      <trkpt lat="43.61541" lon="6.65222">
        <ele>345.5</ele>
        <time>2020-01-08T13:41:08Z</time>
      </trkpt>
      <trkpt lat="43.61545" lon="6.65221">
        <ele>346</ele>
        <time>2020-01-08T13:41:11Z</time>
      </trkpt>
      <trkpt lat="43.61551" lon="6.65218">
        <ele>346.9</ele>
        <time>2020-01-08T13:41:15Z</time>
      </trkpt>
      <trkpt lat="43.61556" lon="6.65215">
        <ele>348.2</ele>
        <time>2020-01-08T13:41:20Z</time>
      </trkpt>
      <trkpt lat="43.61562" lon="6.65215">
        <ele>349.4</ele>
        <time>2020-01-08T13:41:24Z</time>
      </trkpt>
      <trkpt lat="43.61567" lon="6.65215">
        <ele>350.5</ele>
        <time>2020-01-08T13:41:27Z</time>
      </trkpt>
      <trkpt lat="43.61572" lon="6.65216">
        <ele>352.6</ele>
        <time>2020-01-08T13:41:32Z</time>
      </trkpt>
      <trkpt lat="43.61577" lon="6.65214">
        <ele>354.2</ele>
        <time>2020-01-08T13:41:36Z</time>
      </trkpt>
      <trkpt lat="43.61582" lon="6.65213">
        <ele>355.6</ele>
        <time>2020-01-08T13:41:41Z</time>
      </trkpt>
      <trkpt lat="43.61589" lon="6.65209">
        <ele>355.7</ele>
        <time>2020-01-08T13:41:44Z</time>
      </trkpt>
      <trkpt lat="43.61594" lon="6.6521">
        <ele>355</ele>
        <time>2020-01-08T13:41:48Z</time>
      </trkpt>
      <trkpt lat="43.61597" lon="6.65214">
        <ele>353.5</ele>
        <time>2020-01-08T13:41:57Z</time>
      </trkpt>
      <trkpt lat="43.61598" lon="6.6522">
        <ele>352.8</ele>
        <time>2020-01-08T13:42:01Z</time>
      </trkpt>
      <trkpt lat="43.616" lon="6.65225">
        <ele>351.9</ele>
        <time>2020-01-08T13:42:05Z</time>
      </trkpt>
      <trkpt lat="43.61603" lon="6.65231">
        <ele>350.4</ele>
        <time>2020-01-08T13:42:09Z</time>
      </trkpt>
    </trkseg>
  </trk>
  <trk>
    <name><![CDATA[Seillans_2]]></name>
    <trkseg>
      <trkpt lat="43.61664" lon="6.65657">
        <ele>314</ele>
      </trkpt>
      <trkpt lat="43.61664" lon="6.65657">
        <ele>314</ele>
      </trkpt>
    </trkseg>
  </trk>
</gpx>